Darstellungsparameter: Aktuell verwendete Einstellungen:
Skalierung der Graphiken ... ?
xyx+y,   Skalierungsfaktor:      Skalierung: Modus: x, Faktor: 1
Darstellungszeitraum ... ?
Vom - - bis: - -   Zeitraum: 16.08.2009 - 15.08.2014
Min/Max/Avg-Anzeige ... ?
Zeige MMA aktuell
Zeige MMA Monat
Zeige MMA alles
Zeige --A aktuell
Zeige --A Monat
Zeige --A alles
Keine MMA-Anzeige
MMA:
Minimum Maximum Average (ber die Originaldaten)
MMA-Basis: 16.08.2009 - 15.08.2014
Quicknavigation für Darstellung... ?
Tage:      1T, 2T, 3T, 5T -1T -2T -3T -5T +1T +2T +3T +5T
Wochen: 1W, 2W, 3W -1W -2W -3W +1W +2W +3W
Monate: 1M, 3M, 6M -1M -3M -6M +1M +3M +6M
Jahre:    1J, 3J, 5J, 10J -1J -3J -5J -10J +1J +3J +5J +10J
Nutze für die Darstellung ... ?
Originaldaten oder ...
Mittelwerte Minima Maxima auf...
Stundenbasis Tagesbasis Wochenbasis
Monatsbasis Jahresbasis      Datenbasis: Mittelwerte auf Tagesbasis
Darstellen als:
Statistik (Auto) Statistik J:M      Darstellung:
Zur Graphik,    zurück zur Übersicht aller Sensoren.
 
Tabellarische Datenbersicht: ?
 
Sensor: Nr:Datum:Temp:Feuchte:Taupunkt:
Aussen-T/F 1 16-08-2009 00:00:00 23.84583 C 51.0000 % 13.1 C
2 17-08-2009 00:00:00 23.615 C 52.9250 % 13.46 C
3 18-08-2009 00:00:00 22.105 C 48.4000 % 10.71 C
4 19-08-2009 00:00:00 23.76 C 47.2250 % 11.85 C
5 20-08-2009 00:00:00 26.03167 C 46.7167 % 13.75 C
6 21-08-2009 00:00:00 20.32185 C 60.7227 % 12.49 C
7 22-08-2009 00:00:00 19.745 C 53.6417 % 10.08 C
8 23-08-2009 00:00:00 20.0375 C 48.0000 % 8.7 C
9 24-08-2009 00:00:00 22.19667 C 47.2333 % 10.43 C
10 25-08-2009 00:00:00 23.11917 C 51.5583 % 12.6 C
11 26-08-2009 00:00:00 21.68417 C 51.2750 % 11.19 C
12 27-08-2009 00:00:00 23.10167 C 50.6833 % 12.32 C
13 28-08-2009 00:00:00 21.60583 C 44.5167 % 9.01 C
14 29-08-2009 00:00:00 16.21167 C 47.9917 % 5.2 C
15 30-08-2009 00:00:00 16.655 C 48.9833 % 5.9 C
16 31-08-2009 00:00:00 19.54667 C 45.1583 % 7.36 C
17 01-09-2009 00:00:00 19.93167 C 59.1917 % 11.73 C
18 02-09-2009 00:00:00 18.765 C 58.3500 % 10.43 C
19 03-09-2009 00:00:00 17.39328 C 58.5546 % 9.19 C
20 04-09-2009 00:00:00 14.56333 C 65.8333 % 8.25 C
21 05-09-2009 00:00:00 15.10833 C 58.8417 % 7.12 C
22 06-09-2009 00:00:00 14.74583 C 65.4917 % 8.35 C
23 07-09-2009 00:00:00 17.63417 C 59.2667 % 9.6 C
24 08-09-2009 00:00:00 19.88167 C 55.6000 % 10.74 C
25 09-09-2009 00:00:00 19.7475 C 55.6250 % 10.63 C
Sensor: Nr:Datum:Temp:Feuchte:Taupunkt:
Aussen-T/F 26 10-09-2009 00:00:00 18.43917 C 65.5417 % 11.87 C
27 11-09-2009 00:00:00 17.6725 C 48.9250 % 6.81 C
28 12-09-2009 00:00:00 16.99083 C 50.4917 % 6.65 C
29 13-09-2009 00:00:00 14.23 C 70.4250 % 8.93 C
30 14-09-2009 00:00:00 12.17417 C 93.7250 % 11.19 C
31 15-09-2009 00:00:00 13.7563 C 90.4790 % 12.23 C
32 16-09-2009 00:00:00 16.725 C 80.7417 % 13.4 C
33 17-09-2009 00:00:00 18.47583 C 63.0583 % 11.32 C
34 18-09-2009 00:00:00 18.26083 C 63.1333 % 11.14 C
35 19-09-2009 00:00:00 20.78583 C 61.2500 % 13.06 C
36 20-09-2009 00:00:00 19.92833 C 69.1167 % 14.1 C
37 21-09-2009 00:00:00 18.85833 C 66.5250 % 12.49 C
38 22-09-2009 00:00:00 17.215 C 64.9583 % 10.57 C
39 23-09-2009 00:00:00 17.4225 C 65.4750 % 10.89 C
40 24-09-2009 00:00:00 17.19 C 71.3833 % 11.97 C
41 25-09-2009 00:00:00 15.16083 C 67.2333 % 9.13 C
42 26-09-2009 00:00:00 14.56333 C 65.6083 % 8.2 C
43 27-09-2009 00:00:00 14.64 C 65.5500 % 8.26 C
44 28-09-2009 00:00:00 14.21583 C 69.3333 % 8.69 C
45 29-09-2009 00:00:00 15.88319 C 64.1513 % 9.12 C
46 30-09-2009 00:00:00 16.535 C 70.9500 % 11.25 C
47 01-10-2009 00:00:00 14.71583 C 70.4750 % 9.41 C
48 02-10-2009 00:00:00 11.32167 C 64.4833 % 4.88 C
49 03-10-2009 00:00:00 11.72333 C 64.5500 % 5.27 C
50 04-10-2009 00:00:00 13.54167 C 67.7083 % 7.69 C
Sensor: Nr:Datum:Temp:Feuchte:Taupunkt:
Aussen-T/F 51 05-10-2009 00:00:00 12.4075 C 91.3500 % 11.04 C
52 06-10-2009 00:00:00 16.13417 C 87.9333 % 14.13 C
53 07-10-2009 00:00:00 19.57083 C 76.5667 % 15.34 C
54 08-10-2009 00:00:00 16.41167 C 71.5083 % 11.25 C
55 09-10-2009 00:00:00 11.88417 C 71.4583 % 6.89 C
56 10-10-2009 00:00:00 13.34667 C 83.3667 % 10.59 C
57 11-10-2009 00:00:00 12.35042 C 81.0420 % 9.19 C
58 12-10-2009 00:00:00 10.9275 C 64.5583 % 4.52 C
59 13-10-2009 00:00:00 9.24333 C 70.8833 % 4.24 C
60 14-10-2009 00:00:00 4.27333 C 67.6167 % -1.17 C
61 15-10-2009 00:00:00 3.45583 C 68.1750 % -1.84 C
62 16-10-2009 00:00:00 6.41083 C 77.8417 % 2.83 C
63 17-10-2009 00:00:00 8.52083 C 65.8417 % 2.51 C
64 18-10-2009 00:00:00 7.3775 C 67.8000 % 1.83 C
65 19-10-2009 00:00:00 4.59 C 71.1667 % -0.17 C
66 20-10-2009 00:00:00 5.17083 C 70.1250 % 0.18 C
67 21-10-2009 00:00:00 8.07333 C 60.4667 % 0.9 C
68 22-10-2009 00:00:00 9.4 C 65.3833 % 3.25 C
69 23-10-2009 00:00:00 8.34 C 83.1083 % 5.65 C
70 24-10-2009 00:00:00 10.5084 C 80.4958 % 7.3 C
71 25-10-2009 00:00:00 12.6096 C 75.8400 % 8.46 C
72 26-10-2009 00:00:00 11.8875 C 71.4000 % 6.89 C
73 27-10-2009 00:00:00 11.82417 C 72.3750 % 7.02 C
74 28-10-2009 00:00:00 8.37917 C 83.3000 % 5.72 C
75 29-10-2009 00:00:00 8.69333 C 86.5333 % 6.58 C
Sensor: Nr:Datum:Temp:Feuchte:Taupunkt:
Aussen-T/F 76 30-10-2009 00:00:00 10.54083 C 78.0750 % 6.89 C
77 31-10-2009 00:00:00 7.03083 C 74.9917 % 2.91 C
78 01-11-2009 00:00:00 9.17333 C 75.6500 % 5.1 C
79 02-11-2009 00:00:00 10.32333 C 86.4250 % 8.16 C
80 03-11-2009 00:00:00 8.06167 C 74.6333 % 3.84 C
81 04-11-2009 00:00:00 8.75 C 80.8000 % 5.64 C
82 05-11-2009 00:00:00 9.29748 C 68.9916 % 3.91 C
83 06-11-2009 00:00:00 9.43333 C 69.3000 % 4.1 C
84 07-11-2009 00:00:00 8.11583 C 71.3500 % 3.25 C
85 08-11-2009 00:00:00 6.9 C 82.2833 % 4.09 C
86 09-11-2009 00:00:00 6.21167 C 85.0833 % 3.9 C
87 10-11-2009 00:00:00 6.03 C 93.3833 % 5.04 C
88 11-11-2009 00:00:00 6.2525 C 83.7333 % 3.71 C
89 12-11-2009 00:00:00 4.66 C 91.2500 % 3.36 C
90 13-11-2009 00:00:00 11.27583 C 81.1833 % 8.17 C
91 14-11-2009 00:00:00 11.7125 C 75.2250 % 7.48 C
92 15-11-2009 00:00:00 11.2125 C 67.9167 % 5.52 C
93 16-11-2009 00:00:00 10.92667 C 85.6250 % 8.61 C
94 17-11-2009 00:00:00 10.88235 C 85.3697 % 8.53 C
95 18-11-2009 00:00:00 10.245 C 65.3583 % 4.04 C
96 19-11-2009 00:00:00 9.77667 C 70.9667 % 4.77 C
97 20-11-2009 00:00:00 7.87917 C 83.2417 % 5.22 C
98 21-11-2009 00:00:00 11.67333 C 74.7417 % 7.35 C
99 22-11-2009 00:00:00 11.84167 C 61.4167 % 4.67 C
100 23-11-2009 00:00:00 10.33417 C 72.1583 % 5.55 C
Sensor: Nr:Datum:Temp:Feuchte:Taupunkt:
Aussen-T/F 101 24-11-2009 00:00:00 11.89833 C 68.9917 % 6.4 C
102 25-11-2009 00:00:00 12.0875 C 59.3750 % 4.42 C
103 26-11-2009 00:00:00 9.98917 C 60.9833 % 2.82 C
104 27-11-2009 00:00:00 9.0425 C 63.1500 % 2.42 C
105 28-11-2009 00:00:00 8.79 C 68.4583 % 3.31 C
106 29-11-2009 00:00:00 9.41597 C 67.3361 % 3.68 C
107 30-11-2009 00:00:00 6.46 C 84.5500 % 4.05 C
108 01-12-2009 00:00:00 5.65583 C 83.5583 % 3.1 C
109 02-12-2009 00:00:00 5.96 C 72.1333 % 1.33 C
110 03-12-2009 00:00:00 8.53667 C 70.9333 % 3.57 C
111 04-12-2009 00:00:00 4.73917 C 65.4500 % -1.17 C
112 05-12-2009 00:00:00 5.3975 C 73.5583 % 1.06 C
113 06-12-2009 00:00:00 9.83 C 80.9583 % 6.72 C
114 07-12-2009 00:00:00 5.59917 C 85.0833 % 3.3 C
115 08-12-2009 00:00:00 6.95833 C 81.1250 % 3.95 C
116 09-12-2009 00:00:00 7.2525 C 78.5917 % 3.79 C
117 10-12-2009 00:00:00 8.78583 C 80.4000 % 5.6 C
118 11-12-2009 00:00:00 6.665 C 81.1917 % 3.68 C
119 12-12-2009 00:00:00 3.47833 C 86.1750 % 1.39 C
120 13-12-2009 00:00:00 1.50924 C 65.8487 % -4.17 C
121 14-12-2009 00:00:00 -0.80667 C 58.3583 % -7.95 C
122 15-12-2009 00:00:00 -0.50083 C 61.5917 % -6.96 C
123 16-12-2009 00:00:00 -1.19917 C 62.6167 % -7.41 C
124 17-12-2009 00:00:00 -4.445 C 73.9500 % -8.38 C
125 18-12-2009 00:00:00 -5.04417 C 68.9417 % -9.85 C
Sensor: Nr:Datum:Temp:Feuchte:Taupunkt:
Aussen-T/F 126 19-12-2009 00:00:00 -12.79 C 58.7000 % -19.18 C
127 20-12-2009 00:00:00 -8.03917 C 68.5500 % -12.79 C
128 21-12-2009 00:00:00 -2.18417 C 78.2000 % -5.46 C
129 22-12-2009 00:00:00 2.7175 C 87.1750 % 0.8 C
130 23-12-2009 00:00:00 0.49333 C 93.2833 % -0.46 C
131 24-12-2009 00:00:00 2.31333 C 90.7833 % 0.97 C
132 25-12-2009 00:00:00 4.38824 C 77.7983 % 0.86 C
133 26-12-2009 00:00:00 2.04583 C 79.8417 % -1.06 C
134 27-12-2009 00:00:00 0.5475 C 87.0417 % -1.35 C
135 28-12-2009 00:00:00 3.1425 C 74.7333 % -0.9 C
136 29-12-2009 00:00:00 0.4625 C 92.0917 % -0.67 C
137 30-12-2009 00:00:00 7.05667 C 93.4917 % 6.08 C
138 31-12-2009 00:00:00 5.32667 C 94.8417 % 4.57 C
139 01-01-2010 00:00:00 -0.1725 C 91.5333 % -1.38 C
140 02-01-2010 00:00:00 -1.51083 C 76.5417 % -5.09 C
141 03-01-2010 00:00:00 -1.79667 C 80.7750 % -4.66 C
142 04-01-2010 00:00:00 -5.24083 C 72.0250 % -9.48 C
143 05-01-2010 00:00:00 -8.00083 C 81.2667 % -10.64 C
144 06-01-2010 00:00:00 -6.88917 C 75.9167 % -10.41 C
145 07-01-2010 00:00:00 -3.75966 C 75.0084 % -7.53 C
146 08-01-2010 00:00:00 -4.82167 C 73.6333 % -8.8 C
147 09-01-2010 00:00:00 -2.655 C 75.7333 % -6.34 C
148 10-01-2010 00:00:00 -1.87083 C 76.9583 % -5.37 C
149 11-01-2010 00:00:00 -1.42833 C 82.4667 % -4.02 C
150 12-01-2010 00:00:00 -1.65833 C 78.7583 % -4.85 C
Sensor: Nr:Datum:Temp:Feuchte:Taupunkt:
Aussen-T/F 151 13-01-2010 00:00:00 -2.2325 C 72.0917 % -6.57 C
152 14-01-2010 00:00:00 0.35417 C 80.1083 % -2.66 C
153 15-01-2010 00:00:00 0.87333 C 79.1833 % -2.31 C
154 16-01-2010 00:00:00 -0.11833 C 78.0000 % -3.48 C
155 17-01-2010 00:00:00 2.09667 C 91.1500 % 0.81 C
156 18-01-2010 00:00:00 3.38333 C 83.1500 % 0.8 C
157 19-01-2010 00:00:00 2.24583 C 90.2833 % 0.82 C
158 20-01-2010 00:00:00 1.97417 C 83.9417 % -0.45 C
159 21-01-2010 00:00:00 2.45126 C 70.1933 % -2.41 C
160 22-01-2010 00:00:00 2.93667 C 71.6750 % -1.66 C
161 23-01-2010 00:00:00 -0.41333 C 71.4167 % -4.94 C
162 24-01-2010 00:00:00 0.27167 C 82.1667 % -2.4 C
163 25-01-2010 00:00:00 0.01667 C 86.3167 % -1.99 C
164 26-01-2010 00:00:00 -3.325 C 73.0333 % -7.46 C
165 27-01-2010 00:00:00 -5.54083 C 66.7000 % -10.74 C
166 28-01-2010 00:00:00 1.20667 C 76.7750 % -2.41 C
167 29-01-2010 00:00:00 1.39083 C 84.4333 % -0.94 C
168 30-01-2010 00:00:00 -1.54583 C 77.9250 % -4.89 C
169 31-01-2010 00:00:00 -1.62333 C 73.9000 % -5.66 C
170 01-02-2010 00:00:00 0.20167 C 75.0083 % -3.69 C
171 02-02-2010 00:00:00 0.69916 C 78.5798 % -2.59 C
172 03-02-2010 00:00:00 2.28899 C 89.1468 % 0.69 C
173 04-02-2010 00:00:00 4.17018 C 86.3684 % 2.1 C
174 05-02-2010 00:00:00 3.29649 C 80.7719 % 0.32 C
175 06-02-2010 00:00:00 4.55172 C 82.9483 % 1.91 C
Sensor: Nr:Datum:Temp:Feuchte:Taupunkt:
Aussen-T/F 176 07-02-2010 00:00:00 4.17018 C 78.0526 % 0.7 C
177 08-02-2010 00:00:00 -0.75 C 62.0517 % -7.1 C
178 09-02-2010 00:00:00 -3.74483 C 58.3621 % -10.71 C
179 10-02-2010 00:00:00 -4.8 C 67.0702 % -9.96 C
180 11-02-2010 00:00:00 -3.79828 C 70.5345 % -8.36 C
181 12-02-2010 00:00:00 -2.14737 C 70.6140 % -6.76 C
182 13-02-2010 00:00:00 -2.57414 C 69.6724 % -7.34 C
183 14-02-2010 00:00:00 -2.13621 C 74.1379 % -6.11 C
184 15-02-2010 00:00:00 -1.12632 C 71.6491 % -5.58 C
185 16-02-2010 00:00:00 -1.16379 C 67.5690 % -6.39 C
186 17-02-2010 00:00:00 -1.61754 C 73.4912 % -5.73 C
187 18-02-2010 00:00:00 3.2569 C 75.4138 % -0.66 C
188 19-02-2010 00:00:00 3.59375 C 66.6094 % -2.03 C
189 20-02-2010 00:00:00 1.69333 C 64.8167 % -4.2 C
190 21-02-2010 00:00:00 2.87833 C 72.0500 % -1.65 C
191 22-02-2010 00:00:00 6.76417 C 68.6833 % 1.42 C
192 23-02-2010 00:00:00 9.7875 C 76.2667 % 5.82 C
193 24-02-2010 00:00:00 9.55 C 71.2250 % 4.61 C
194 25-02-2010 00:00:00 9.58 C 64.7500 % 3.28 C
195 26-02-2010 00:00:00 8.62667 C 61.8917 % 1.74 C
196 27-02-2010 00:00:00 8.4025 C 48.0000 % -1.95 C
197 28-02-2010 00:00:00 8.30667 C 65.2417 % 2.18 C
198 01-03-2010 00:00:00 5.40917 C 55.1833 % -2.85 C
199 02-03-2010 00:00:00 3.135 C 64.5000 % -2.9 C
200 03-03-2010 00:00:00 2.9925 C 56.0000 % -4.91 C
Sensor: Nr:Datum:Temp:Feuchte:Taupunkt:
Aussen-T/F 201 04-03-2010 00:00:00 2.47395 C 46.4538 % -7.82 C
202 05-03-2010 00:00:00 0.77667 C 47.2000 % -9.17 C
203 06-03-2010 00:00:00 -0.47083 C 72.0000 % -4.89 C
204 07-03-2010 00:00:00 -1.6825 C 52.6417 % -10.08 C
205 08-03-2010 00:00:00 -1.21083 C 43.0500 % -12.16 C
206 09-03-2010 00:00:00 -0.87167 C 38.6333 % -13.19 C
207 10-03-2010 00:00:00 1.41667 C 32.7750 % -13.15 C
208 11-03-2010 00:00:00 0.40167 C 51.3333 % -8.45 C
209 12-03-2010 00:00:00 1.61167 C 71.3417 % -3 C
210 13-03-2010 00:00:00 4.36583 C 64.8667 % -1.65 C
211 14-03-2010 00:00:00 5.79833 C 56.7083 % -2.12 C
212 15-03-2010 00:00:00 6.445 C 67.4417 % 0.87 C
213 16-03-2010 00:00:00 6.08067 C 77.1933 % 2.4 C
214 17-03-2010 00:00:00 6.69417 C 58.9167 % -0.76 C
215 18-03-2010 00:00:00 10.12333 C 47.9167 % -0.4 C
216 19-03-2010 00:00:00 15.0225 C 36.2750 % 0.19 C
217 20-03-2010 00:00:00 14.37667 C 68.5333 % 8.67 C
218 21-03-2010 00:00:00 11.23667 C 85.1833 % 8.84 C
219 22-03-2010 00:00:00 9.7575 C 75.9583 % 5.73 C
220 23-03-2010 00:00:00 8.94 C 69.7083 % 3.71 C
221 24-03-2010 00:00:00 11.9975 C 58.5500 % 4.14 C
222 25-03-2010 00:00:00 14.27083 C 53.1750 % 4.88 C
223 26-03-2010 00:00:00 10.0325 C 74.5250 % 5.72 C
224 27-03-2010 00:00:00 9.34333 C 63.2500 % 2.73 C
225 28-03-2010 00:00:00 9.93478 C 66.1043 % 3.91 C
Sensor: Nr:Datum:Temp:Feuchte:Taupunkt:
Aussen-T/F 226 29-03-2010 00:00:00 11.88167 C 76.0000 % 7.79 C
227 30-03-2010 00:00:00 12.70672 C 57.7479 % 4.6 C
228 31-03-2010 00:00:00 8.18667 C 53.2250 % -0.75 C
229 01-04-2010 00:00:00 5.84333 C 52.3000 % -3.16 C
230 02-04-2010 00:00:00 6.48583 C 58.2667 % -1.1 C
231 03-04-2010 00:00:00 9.73667 C 59.2250 % 2.17 C
232 04-04-2010 00:00:00 8.98833 C 59.6417 % 1.57 C
233 05-04-2010 00:00:00 9.15083 C 51.2500 % -0.37 C
234 06-04-2010 00:00:00 10.38167 C 45.7750 % -0.79 C
235 07-04-2010 00:00:00 13.61167 C 43.0667 % 1.3 C
236 08-04-2010 00:00:00 12.375 C 63.8000 % 5.72 C
237 09-04-2010 00:00:00 11.49917 C 57.1917 % 3.34 C
238 10-04-2010 00:00:00 11.3575 C 45.4833 % 0.01 C
239 11-04-2010 00:00:00 7.86667 C 53.1250 % -1.07 C
240 12-04-2010 00:00:00 7.44958 C 67.1176 % 1.76 C
241 13-04-2010 00:00:00 11.85583 C 58.3000 % 3.94 C
242 14-04-2010 00:00:00 11.76417 C 44.4000 % 0.05 C
243 15-04-2010 00:00:00 11.8575 C 47.2917 % 1.01 C
244 16-04-2010 00:00:00 9.71583 C 46.7750 % -1.1 C
245 17-04-2010 00:00:00 11.1225 C 45.0083 % -0.34 C
246 18-04-2010 00:00:00 13.27917 C 39.1333 % -0.32 C
247 19-04-2010 00:00:00 11.18333 C 50.5667 % 1.32 C
248 20-04-2010 00:00:00 11.13833 C 50.6583 % 1.3 C
249 21-04-2010 00:00:00 7.34417 C 48.4667 % -2.8 C
250 22-04-2010 00:00:00 8.35333 C 45.1250 % -2.83 C
Sensor: Nr:Datum:Temp:Feuchte:Taupunkt:
Aussen-T/F 251 23-04-2010 00:00:00 11.44917 C 39.7500 % -1.74 C
252 24-04-2010 00:00:00 14.91167 C 35.7417 % -0.11 C
253 25-04-2010 00:00:00 17.1075 C 36.0667 % 1.96 C
254 26-04-2010 00:00:00 15.72269 C 52.7899 % 6.12 C
255 27-04-2010 00:00:00 15.50417 C 47.7417 % 4.48 C
256 28-04-2010 00:00:00 16.8925 C 44.0167 % 4.58 C
257 29-04-2010 00:00:00 19.21417 C 40.4917 % 5.48 C
258 30-04-2010 00:00:00 18.69583 C 44.4333 % 6.35 C
259 01-05-2010 00:00:00 15.09917 C 52.5333 % 5.47 C
260 02-05-2010 00:00:00 13.48583 C 65.3833 % 7.13 C
261 03-05-2010 00:00:00 10.01667 C 73.7583 % 5.56 C
262 04-05-2010 00:00:00 9.78833 C 59.6167 % 2.32 C
263 05-05-2010 00:00:00 10.09083 C 40.0167 % -2.87 C
264 06-05-2010 00:00:00 6.68167 C 89.3500 % 5.06 C
265 07-05-2010 00:00:00 6.49417 C 88.9000 % 4.8 C
266 08-05-2010 00:00:00 11.06218 C 63.5126 % 4.41 C
267 09-05-2010 00:00:00 12.575 C 62.7583 % 5.67 C
268 10-05-2010 00:00:00 11.99917 C 62.6167 % 5.1 C
269 11-05-2010 00:00:00 11.53167 C 66.0583 % 5.42 C
270 12-05-2010 00:00:00 8.62333 C 73.6000 % 4.18 C
271 13-05-2010 00:00:00 8.07667 C 75.9167 % 4.09 C
272 14-05-2010 00:00:00 8.97333 C 81.9833 % 6.07 C
273 15-05-2010 00:00:00 10.6825 C 60.3500 % 3.33 C
274 16-05-2010 00:00:00 13.32917 C 45.9333 % 1.95 C
275 17-05-2010 00:00:00 10.56917 C 73.2083 % 5.98 C
Sensor: Nr:Datum:Temp:Feuchte:Taupunkt:
Aussen-T/F 276 18-05-2010 00:00:00 11.44333 C 59.0083 % 3.73 C
277 19-05-2010 00:00:00 10.30583 C 66.0083 % 4.24 C
278 20-05-2010 00:00:00 12.64034 C 56.8739 % 4.32 C
279 21-05-2010 00:00:00 16.54333 C 54.3833 % 7.31 C
280 22-05-2010 00:00:00 18.32583 C 49.5167 % 7.59 C
281 23-05-2010 00:00:00 20.32083 C 49.1083 % 9.3 C
282 24-05-2010 00:00:00 21.23 C 48.1667 % 9.84 C
283 25-05-2010 00:00:00 20.64583 C 44.5083 % 8.14 C
284 26-05-2010 00:00:00 15.41917 C 68.9500 % 9.75 C
285 27-05-2010 00:00:00 15.6175 C 61.4583 % 8.24 C
286 28-05-2010 00:00:00 17.3075 C 53.8500 % 7.88 C
287 29-05-2010 00:00:00 16.34 C 52.0167 % 6.48 C
288 30-05-2010 00:00:00 14.5975 C 71.3750 % 9.48 C
289 31-05-2010 00:00:00 11.56667 C 78.6667 % 7.99 C
290 01-06-2010 00:00:00 16.01833 C 61.6500 % 8.66 C
291 02-06-2010 00:00:00 17.66471 C 51.7731 % 7.63 C
292 03-06-2010 00:00:00 20.49083 C 44.3000 % 7.93 C
293 04-06-2010 00:00:00 21.43 C 42.1333 % 8.04 C
294 05-06-2010 00:00:00 22.97667 C 42.9500 % 9.72 C
295 06-06-2010 00:00:00 20.91333 C 60.9250 % 13.1 C
296 07-06-2010 00:00:00 19.58833 C 53.6333 % 9.93 C
297 08-06-2010 00:00:00 19.76833 C 55.8333 % 10.7 C
298 09-06-2010 00:00:00 22.5625 C 56.5667 % 13.5 C
299 10-06-2010 00:00:00 22.76417 C 66.8333 % 16.28 C
300 11-06-2010 00:00:00 22.89167 C 56.7417 % 13.86 C
Sensor: Nr:Datum:Temp:Feuchte:Taupunkt:
Aussen-T/F 301 12-06-2010 00:00:00 18.84917 C 63.4750 % 11.77 C
302 13-06-2010 00:00:00 18.25083 C 50.0250 % 7.67 C
303 14-06-2010 00:00:00 19.76667 C 45.7833 % 7.76 C
304 15-06-2010 00:00:00 18.9 C 49.7311 % 8.18 C
305 16-06-2010 00:00:00 18.82833 C 38.3167 % 4.34 C
306 17-06-2010 00:00:00 15.08583 C 71.6167 % 10 C
307 18-06-2010 00:00:00 15.2325 C 71.9167 % 10.2 C
308 19-06-2010 00:00:00 14.2725 C 51.1167 % 4.32 C
309 20-06-2010 00:00:00 13.20333 C 59.2167 % 5.43 C
310 21-06-2010 00:00:00 14.11083 C 52.4833 % 4.55 C
311 22-06-2010 00:00:00 17.38667 C 47.4833 % 6.12 C
312 23-06-2010 00:00:00 19.75917 C 47.6667 % 8.34 C
313 24-06-2010 00:00:00 22.54833 C 43.3500 % 9.47 C
314 25-06-2010 00:00:00 23.37 C 41.1917 % 9.45 C
315 26-06-2010 00:00:00 23.635 C 41.1583 % 9.67 C
316 27-06-2010 00:00:00 24.49417 C 40.2750 % 10.12 C
317 28-06-2010 00:00:00 25.25546 C 38.9832 % 10.31 C
318 29-06-2010 00:00:00 24.86167 C 43.0500 % 11.45 C
319 30-06-2010 00:00:00 24.6175 C 44.6583 % 11.78 C
320 01-07-2010 00:00:00 25.8425 C 40.2750 % 11.32 C
321 02-07-2010 00:00:00 26.96667 C 37.4917 % 11.24 C
322 03-07-2010 00:00:00 26.33 C 45.6083 % 13.66 C
323 04-07-2010 00:00:00 26.44833 C 48.2917 % 14.65 C
324 05-07-2010 00:00:00 22.02083 C 46.5417 % 10.05 C
325 06-07-2010 00:00:00 20.17833 C 47.7667 % 8.76 C
Sensor: Nr:Datum:Temp:Feuchte:Taupunkt:
Aussen-T/F 326 07-07-2010 00:00:00 22.53417 C 40.7500 % 8.54 C
327 08-07-2010 00:00:00 26.43417 C 34.8333 % 9.67 C
328 09-07-2010 00:00:00 27.51333 C 35.5750 % 10.93 C
329 10-07-2010 00:00:00 29.25667 C 36.9500 % 13.04 C
330 11-07-2010 00:00:00 28.48319 C 46.0252 % 15.75 C
331 12-07-2010 00:00:00 27.1175 C 42.8500 % 13.41 C
332 13-07-2010 00:00:00 25.36083 C 44.2167 % 12.31 C
333 14-07-2010 00:00:00 25.98917 C 48.2250 % 14.2 C
334 15-07-2010 00:00:00 22.6525 C 43.7250 % 9.69 C
335 16-07-2010 00:00:00 23.97667 C 38.9833 % 9.17 C
336 17-07-2010 00:00:00 21.99167 C 52.4833 % 11.83 C
337 18-07-2010 00:00:00 21.73833 C 38.4417 % 6.98 C
338 19-07-2010 00:00:00 23.63167 C 37.6000 % 8.33 C
339 20-07-2010 00:00:00 25.03833 C 36.6583 % 9.2 C
340 21-07-2010 00:00:00 24.73833 C 41.0417 % 10.62 C
341 22-07-2010 00:00:00 21.34917 C 62.1250 % 13.8 C
342 23-07-2010 00:00:00 20.17059 C 65.9748 % 13.61 C
343 24-07-2010 00:00:00 19.00667 C 56.1417 % 10.07 C
344 25-07-2010 00:00:00 17.26833 C 53.0333 % 7.62 C
345 26-07-2010 00:00:00 17.2925 C 77.8500 % 13.39 C
346 27-07-2010 00:00:00 19.815 C 58.8583 % 11.54 C
347 28-07-2010 00:00:00 20.5075 C 62.7583 % 13.17 C
348 29-07-2010 00:00:00 16.32417 C 82.1667 % 13.28 C
349 30-07-2010 00:00:00 19.665 C 55.1000 % 10.41 C
350 31-07-2010 00:00:00 20.62417 C 50.6750 % 10.04 C
Sensor: Nr:Datum:Temp:Feuchte:Taupunkt:
Aussen-T/F 351 01-08-2010 00:00:00 22.90833 C 58.5833 % 14.36 C
352 02-08-2010 00:00:00 19.60917 C 66.5833 % 13.22 C
353 03-08-2010 00:00:00 18.94167 C 62.2917 % 11.58 C
354 04-08-2010 00:00:00 19.62269 C 54.1933 % 10.12 C
355 05-08-2010 00:00:00 18.49417 C 63.2500 % 11.38 C
356 06-08-2010 00:00:00 19.04667 C 49.4417 % 8.23 C
357 07-08-2010 00:00:00 19.46583 C 47.2333 % 7.94 C
358 08-08-2010 00:00:00 18.485 C 73.9083 % 13.75 C
359 09-08-2010 00:00:00 19.515 C 62.0500 % 12.06 C
360 10-08-2010 00:00:00 22.13583 C 49.8000 % 11.17 C
361 11-08-2010 00:00:00 20.32833 C 71.7583 % 15.06 C
362 12-08-2010 00:00:00 19.10917 C 68.7917 % 13.24 C
363 13-08-2010 00:00:00 18.77833 C 56.4000 % 9.93 C
364 14-08-2010 00:00:00 19.9675 C 55.6000 % 10.82 C
365 15-08-2010 00:00:00 16.88667 C 82.0833 % 13.81 C
366 16-08-2010 00:00:00 17.07479 C 76.6975 % 12.95 C
367 17-08-2010 00:00:00 16.06667 C 78.3083 % 12.29 C
368 18-08-2010 00:00:00 18.40917 C 62.9750 % 11.24 C
369 19-08-2010 00:00:00 18.88917 C 50.6417 % 8.44 C
370 20-08-2010 00:00:00 20.42605 C 55.8739 % 11.32 C
371 21-08-2010 00:00:00 23.76417 C 52.7167 % 13.53 C
372 22-08-2010 00:00:00 23.01667 C 59.0250 % 14.58 C
373 23-08-2010 00:00:00 21.205 C 70.7833 % 15.69 C
374 24-08-2010 00:00:00 19.27083 C 47.4667 % 7.83 C
375 25-08-2010 00:00:00 17.61917 C 51.1167 % 7.4 C
Sensor: Nr:Datum:Temp:Feuchte:Taupunkt:
Aussen-T/F 376 26-08-2010 00:00:00 20.68083 C 64.0500 % 13.64 C
377 27-08-2010 00:00:00 18.37667 C 83.9000 % 15.61 C
378 28-08-2010 00:00:00 14.0675 C 73.3833 % 9.38 C
379 29-08-2010 00:00:00 13.03167 C 75.5167 % 8.81 C
380 30-08-2010 00:00:00 12.5675 C 77.2917 % 8.7 C
381 31-08-2010 00:00:00 15.42917 C 63.8417 % 8.62 C
382 01-09-2010 00:00:00 14.82437 C 66.2437 % 8.59 C
383 02-09-2010 00:00:00 14.95333 C 68.7750 % 9.27 C
384 03-09-2010 00:00:00 15.91417 C 66.8500 % 9.77 C
385 04-09-2010 00:00:00 16.71417 C 59.2667 % 8.74 C
386 05-09-2010 00:00:00 15.205 C 57.9500 % 6.99 C
387 06-09-2010 00:00:00 15.675 C 50.6333 % 5.48 C
388 07-09-2010 00:00:00 13.36083 C 72.0500 % 8.43 C
389 08-09-2010 00:00:00 15.545 C 82.5083 % 12.58 C
390 09-09-2010 00:00:00 16.20583 C 69.6333 % 10.65 C
391 10-09-2010 00:00:00 16.18 C 73.5500 % 11.45 C
392 11-09-2010 00:00:00 18.13417 C 67.4000 % 12 C
393 12-09-2010 00:00:00 16.21667 C 76.2417 % 12.03 C
394 13-09-2010 00:00:00 15.67583 C 69.6833 % 10.16 C
395 14-09-2010 00:00:00 16.63697 C 63.2689 % 9.63 C
396 15-09-2010 00:00:00 16.3175 C 56.3417 % 7.62 C
397 16-09-2010 00:00:00 14.07 C 68.7833 % 8.43 C
398 17-09-2010 00:00:00 13.76667 C 63.3000 % 6.92 C
399 18-09-2010 00:00:00 11.45083 C 66.4583 % 5.43 C
400 19-09-2010 00:00:00 11.7425 C 63.7833 % 5.12 C
Sensor: Nr:Datum:Temp:Feuchte:Taupunkt:
Aussen-T/F 401 20-09-2010 00:00:00 14.01 C 60.2750 % 6.44 C
402 21-09-2010 00:00:00 14.27 C 69.4583 % 8.76 C
403 22-09-2010 00:00:00 15.86667 C 68.2250 % 10.02 C
404 23-09-2010 00:00:00 16.56167 C 70.7917 % 11.24 C
405 24-09-2010 00:00:00 14.165 C 94.1000 % 13.23 C
406 25-09-2010 00:00:00 12.41833 C 72.2250 % 7.56 C
407 26-09-2010 00:00:00 11.2425 C 71.6917 % 6.33 C
408 27-09-2010 00:00:00 9.86807 C 80.2269 % 6.63 C
409 28-09-2010 00:00:00 10.93083 C 94.2917 % 10.05 C
410 29-09-2010 00:00:00 13.39417 C 76.6083 % 9.37 C
411 30-09-2010 00:00:00 11.89667 C 83.4333 % 9.18 C
412 01-10-2010 00:00:00 12.33667 C 83.6000 % 9.64 C
413 02-10-2010 00:00:00 13.4525 C 88.8333 % 11.65 C
414 03-10-2010 00:00:00 17.83583 C 69.4500 % 12.17 C
415 04-10-2010 00:00:00 16.905 C 67.1833 % 10.78 C
416 05-10-2010 00:00:00 15.64833 C 81.7000 % 12.53 C
417 06-10-2010 00:00:00 17.22333 C 68.1250 % 11.3 C
418 07-10-2010 00:00:00 16.31167 C 74.2083 % 11.71 C
419 08-10-2010 00:00:00 16.02917 C 68.6417 % 10.27 C
420 09-10-2010 00:00:00 13.1475 C 71.0083 % 8.01 C
421 10-10-2010 00:00:00 11.6125 C 61.5417 % 4.48 C
422 11-10-2010 00:00:00 10.90084 C 54.7647 % 2.17 C
423 12-10-2010 00:00:00 8.71917 C 68.1167 % 3.18 C
424 13-10-2010 00:00:00 7.475 C 69.3833 % 2.25 C
425 14-10-2010 00:00:00 7.55583 C 74.6167 % 3.35 C
Sensor: Nr:Datum:Temp:Feuchte:Taupunkt:
Aussen-T/F 426 15-10-2010 00:00:00 10.475 C 76.0250 % 6.44 C
427 16-10-2010 00:00:00 8.375 C 89.9250 % 6.82 C
428 17-10-2010 00:00:00 7.22667 C 80.5250 % 4.11 C
429 18-10-2010 00:00:00 6.71833 C 73.3000 % 2.29 C
430 19-10-2010 00:00:00 7.28167 C 81.9417 % 4.41 C
431 20-10-2010 00:00:00 6.14167 C 81.5000 % 3.22 C
432 21-10-2010 00:00:00 5.27 C 66.8833 % -0.37 C
433 22-10-2010 00:00:00 4.20167 C 63.7833 % -2.03 C
434 23-10-2010 00:00:00 4.37899 C 73.9748 % 0.16 C
435 24-10-2010 00:00:00 8.55667 C 66.0833 % 2.59 C
436 25-10-2010 00:00:00 6.1525 C 71.2167 % 1.34 C
437 26-10-2010 00:00:00 3.62417 C 82.5583 % 0.94 C
438 27-10-2010 00:00:00 8.14917 C 58.7667 % 0.58 C
439 28-10-2010 00:00:00 9.1725 C 62.2417 % 2.34 C
440 29-10-2010 00:00:00 9.9325 C 69.5917 % 4.64 C
441 30-10-2010 00:00:00 10.57143 C 68.9286 % 5.12 C
442 02-11-2010 00:00:00 11.31548 C 66.6667 % 5.35 C
443 03-11-2010 00:00:00 13.10333 C 68.7083 % 7.49 C
444 04-11-2010 00:00:00 16.41167 C 62.3167 % 9.19 C
445 05-11-2010 00:00:00 14.51917 C 58.8000 % 6.56 C
446 06-11-2010 00:00:00 10.40917 C 80.1167 % 7.13 C
447 07-11-2010 00:00:00 6.86917 C 92.5083 % 5.74 C
448 08-11-2010 00:00:00 4.65583 C 85.5500 % 2.45 C
449 09-11-2010 00:00:00 6.65667 C 85.5833 % 4.42 C
450 10-11-2010 00:00:00 7.08319 C 83.2017 % 4.43 C
Sensor: Nr:Datum:Temp:Feuchte:Taupunkt:
Aussen-T/F 451 11-11-2010 00:00:00 5.84167 C 74.0333 % 1.58 C
452 12-11-2010 00:00:00 11.04083 C 67.0583 % 5.17 C
453 13-11-2010 00:00:00 14.51917 C 70.8917 % 9.31 C
454 14-11-2010 00:00:00 14.60833 C 62.1917 % 7.46 C
455 15-11-2010 00:00:00 9.47833 C 67.6667 % 3.81 C
456 16-11-2010 00:00:00 6.0125 C 79.4417 % 2.73 C
457 17-11-2010 00:00:00 5.3125 C 74.5000 % 1.16 C
458 18-11-2010 00:00:00 5.61917 C 84.0500 % 3.14 C
459 19-11-2010 00:00:00 6.4275 C 81.7500 % 3.54 C
460 20-11-2010 00:00:00 4.8325 C 88.3833 % 3.08 C
461 21-11-2010 00:00:00 4.48333 C 73.7500 % 0.22 C
462 22-11-2010 00:00:00 4.47417 C 75.5417 % 0.54 C
463 23-11-2010 00:00:00 4.54118 C 69.6723 % -0.51 C
464 24-11-2010 00:00:00 3.415 C 80.1833 % 0.33 C
465 25-11-2010 00:00:00 1.74083 C 80.3500 % -1.27 C
466 26-11-2010 00:00:00 -0.29083 C 87.9417 % -2.04 C
467 27-11-2010 00:00:00 -1.99167 C 84.3333 % -4.27 C
468 28-11-2010 00:00:00 -1.325 C 80.3667 % -4.26 C
469 29-11-2010 00:00:00 -1.55833 C 80.7833 % -4.42 C
470 30-11-2010 00:00:00 -1.9425 C 80.4000 % -4.86 C
471 01-12-2010 00:00:00 -5.7325 C 61.7750 % -11.88 C
472 02-12-2010 00:00:00 -7.03167 C 68.9667 % -11.75 C
473 03-12-2010 00:00:00 -7.38583 C 76.6667 % -10.77 C
474 04-12-2010 00:00:00 -3.48167 C 68.7667 % -8.38 C
475 05-12-2010 00:00:00 0.91667 C 65.5750 % -4.79 C
Sensor: Nr:Datum:Temp:Feuchte:Taupunkt:
Aussen-T/F 476 06-12-2010 00:00:00 0.24538 C 81.3697 % -2.56 C
477 07-12-2010 00:00:00 -0.20833 C 81.1417 % -3.04 C
478 08-12-2010 00:00:00 -0.25917 C 90.8167 % -1.57 C
479 09-12-2010 00:00:00 0.61333 C 77.4667 % -2.86 C
480 10-12-2010 00:00:00 1.73333 C 85.9917 % -0.35 C
481 11-12-2010 00:00:00 4.07583 C 81.0750 % 1.13 C
482 12-12-2010 00:00:00 3.085 C 76.4250 % -0.65 C
483 13-12-2010 00:00:00 -4.44833 C 70.7250 % -8.95 C
484 14-12-2010 00:00:00 -3.65833 C 75.1500 % -7.41 C
485 15-12-2010 00:00:00 -3.1275 C 73.4333 % -7.19 C
486 16-12-2010 00:00:00 -3.4675 C 77.7917 % -6.78 C
487 17-12-2010 00:00:00 -2.77417 C 73.1083 % -6.91 C
488 18-12-2010 00:00:00 -4.65833 C 78.4500 % -7.83 C
489 19-12-2010 00:00:00 -0.7125 C 83.7583 % -3.11 C
490 20-12-2010 00:00:00 -1.53667 C 79.9500 % -4.54 C
491 21-12-2010 00:00:00 -0.65546 C 86.2857 % -2.66 C
492 22-12-2010 00:00:00 0.9225 C 90.2417 % -0.49 C
493 23-12-2010 00:00:00 -0.36833 C 89.5583 % -1.87 C
494 24-12-2010 00:00:00 -1.77438 C 82.4132 % -4.37 C
495 25-12-2010 00:00:00 -5.4775 C 72.1917 % -9.68 C
496 26-12-2010 00:00:00 -4.87833 C 75.4833 % -8.53 C
497 27-12-2010 00:00:00 -2.21833 C 78.9083 % -5.37 C
498 28-12-2010 00:00:00 -2.07899 C 79.7983 % -5.09 C
499 29-12-2010 00:00:00 -0.255 C 79.0333 % -3.44 C
500 30-12-2010 00:00:00 -0.55333 C 77.5833 % -3.98 C
Sensor: Nr:Datum:Temp:Feuchte:Taupunkt:
Aussen-T/F 501 31-12-2010 00:00:00 -1.10413 C 79.2975 % -4.22 C
502 01-01-2011 00:00:00 1.07311 C 86.7311 % -0.88 C
503 02-01-2011 00:00:00 0.8025 C 85.7500 % -1.31 C
504 03-01-2011 00:00:00 -0.9125 C 85.2333 % -3.07 C
505 04-01-2011 00:00:00 -2.36667 C 81.6500 % -5.07 C
506 05-01-2011 00:00:00 -3.83583 C 71.7333 % -8.18 C
507 06-01-2011 00:00:00 3.72667 C 87.9667 % 1.92 C
508 07-01-2011 00:00:00 6.91833 C 89.9000 % 5.38 C
509 08-01-2011 00:00:00 10.5675 C 72.8000 % 5.9 C
510 09-01-2011 00:00:00 5.08655 C 85.5042 % 2.86 C
511 10-01-2011 00:00:00 0.7175 C 86.3333 % -1.3 C
512 11-01-2011 00:00:00 3.43667 C 78.5333 % 0.07 C
513 12-01-2011 00:00:00 5.44 C 78.6250 % 2.03 C
514 13-01-2011 00:00:00 11.80333 C 77.9417 % 8.09 C
515 14-01-2011 00:00:00 11.77417 C 66.0167 % 5.64 C
516 15-01-2011 00:00:00 8.68167 C 69.2417 % 3.37 C
517 16-01-2011 00:00:00 6.84167 C 76.6833 % 3.04 C
518 17-01-2011 00:00:00 3.62917 C 87.1750 % 1.7 C
519 18-01-2011 00:00:00 7.28833 C 76.0833 % 3.36 C
520 19-01-2011 00:00:00 3.30833 C 77.6417 % -0.21 C
521 20-01-2011 00:00:00 1.7 C 80.0083 % -1.37 C
522 21-01-2011 00:00:00 -0.0675 C 63.4250 % -6.17 C
523 22-01-2011 00:00:00 0.39664 C 78.3361 % -2.92 C
524 23-01-2011 00:00:00 1.50167 C 86.5500 % -0.49 C
525 24-01-2011 00:00:00 3.10167 C 84.6333 % 0.77 C
Sensor: Nr:Datum:Temp:Feuchte:Taupunkt:
Aussen-T/F 526 25-01-2011 00:00:00 2.49833 C 79.4167 % -0.69 C
527 26-01-2011 00:00:00 0.84083 C 82.9250 % -1.72 C
528 27-01-2011 00:00:00 -0.28583 C 71.6667 % -4.77 C
529 28-01-2011 00:00:00 -1.27083 C 64.6250 % -7.07 C
530 29-01-2011 00:00:00 -4.9 C 78.6250 % -8.03 C
531 30-01-2011 00:00:00 -6.20917 C 79.4500 % -9.17 C
532 31-01-2011 00:00:00 -5.73833 C 80.2583 % -8.59 C
533 01-02-2011 00:00:00 -4.03917 C 72.9333 % -8.16 C
534 02-02-2011 00:00:00 -0.865 C 75.9667 % -4.56 C
535 03-02-2011 00:00:00 1.94454 C 80.8824 % -0.98 C
536 04-02-2011 00:00:00 6.18583 C 70.0667 % 1.15 C
537 05-02-2011 00:00:00 9.25833 C 62.0000 % 2.37 C
538 06-02-2011 00:00:00 8.62 C 60.0083 % 1.31 C
539 07-02-2011 00:00:00 6.48083 C 55.1667 % -1.85 C
540 08-02-2011 00:00:00 5.48833 C 65.0417 % -0.55 C
541 09-02-2011 00:00:00 -0.23333 C 82.7917 % -2.8 C
542 10-02-2011 00:00:00 3.9425 C 78.7083 % 0.59 C
543 11-02-2011 00:00:00 10.23917 C 74.1917 % 5.85 C
544 12-02-2011 00:00:00 6.88 C 81.4333 % 3.93 C
545 13-02-2011 00:00:00 5.13417 C 82.5250 % 2.41 C
546 14-02-2011 00:00:00 5.215 C 81.7250 % 2.35 C
547 15-02-2011 00:00:00 5.14958 C 83.2101 % 2.54 C
548 16-02-2011 00:00:00 4.90417 C 79.7167 % 1.7 C
549 17-02-2011 00:00:00 1.96333 C 77.4417 % -1.56 C
550 18-02-2011 00:00:00 2.23667 C 72.6417 % -2.16 C
Sensor: Nr:Datum:Temp:Feuchte:Taupunkt:
Aussen-T/F 551 19-02-2011 00:00:00 2.82833 C 73.3833 % -1.45 C
552 20-02-2011 00:00:00 0.7 C 62.1917 % -5.69 C
553 21-02-2011 00:00:00 -1.8125 C 51.6000 % -10.45 C
554 22-02-2011 00:00:00 -3.39167 C 51.9833 % -11.83 C
555 23-02-2011 00:00:00 -2.66583 C 50.3167 % -11.56 C
556 24-02-2011 00:00:00 0.91083 C 75.5417 % -2.91 C
557 25-02-2011 00:00:00 3.445 C 84.2583 % 1.05 C
558 26-02-2011 00:00:00 5.07167 C 75.9333 % 1.19 C
559 27-02-2011 00:00:00 5.47731 C 73.6807 % 1.16 C
560 28-02-2011 00:00:00 4.52333 C 67.9083 % -0.88 C
561 01-03-2011 00:00:00 4.31167 C 69.8833 % -0.69 C
562 02-03-2011 00:00:00 3.41 C 50.2917 % -5.93 C
563 03-03-2011 00:00:00 1.585 C 49.3000 % -7.87 C
564 04-03-2011 00:00:00 2.1825 C 60.4167 % -4.67 C
565 05-03-2011 00:00:00 0.19833 C 75.1083 % -3.68 C
566 06-03-2011 00:00:00 1.7325 C 60.2167 % -5.14 C
567 07-03-2011 00:00:00 1.05667 C 46.9417 % -8.99 C
568 08-03-2011 00:00:00 1.92583 C 52.3083 % -6.79 C
569 09-03-2011 00:00:00 6.48333 C 61.8000 % -0.3 C
570 10-03-2011 00:00:00 7.3 C 57.6167 % -0.49 C
571 11-03-2011 00:00:00 8.78571 C 53.4790 % -0.13 C
572 12-03-2011 00:00:00 7.3525 C 60.9583 % 0.33 C
573 13-03-2011 00:00:00 11.07917 C 64.7167 % 4.7 C
574 14-03-2011 00:00:00 10.09917 C 77.5250 % 6.35 C
575 15-03-2011 00:00:00 10.73917 C 68.9250 % 5.28 C
Sensor: Nr:Datum:Temp:Feuchte:Taupunkt:
Aussen-T/F 576 16-03-2011 00:00:00 8.73583 C 66.1667 % 2.78 C
577 17-03-2011 00:00:00 6.295 C 79.3167 % 2.99 C
578 18-03-2011 00:00:00 6.41833 C 70.2167 % 1.4 C
579 19-03-2011 00:00:00 6.63 C 65.1750 % 0.57 C
580 20-03-2011 00:00:00 3.39167 C 61.9167 % -3.2 C
581 21-03-2011 00:00:00 4.66333 C 60.1083 % -2.4 C
582 22-03-2011 00:00:00 6.83333 C 59.2833 % -0.54 C
583 23-03-2011 00:00:00 8.59333 C 65.0750 % 2.41 C
584 24-03-2011 00:00:00 9.14417 C 60.8917 % 2.01 C
585 25-03-2011 00:00:00 9.65798 C 55.8908 % 1.29 C
586 26-03-2011 00:00:00 8.11917 C 59.6833 % 0.76 C
587 27-03-2011 00:00:00 9.62174 C 53.4696 % 0.65 C
588 28-03-2011 00:00:00 7.7225 C 57.4083 % -0.15 C
589 29-03-2011 00:00:00 7.42083 C 58.3917 % -0.2 C
590 30-03-2011 00:00:00 8.36333 C 66.2417 % 2.44 C
591 31-03-2011 00:00:00 12.03833 C 73.1000 % 7.37 C
592 01-04-2011 00:00:00 13.985 C 68.4250 % 8.27 C
593 02-04-2011 00:00:00 14.21833 C 66.4500 % 8.06 C
594 03-04-2011 00:00:00 11.81167 C 76.3083 % 7.78 C
595 04-04-2011 00:00:00 10.68333 C 67.0083 % 4.82 C
596 05-04-2011 00:00:00 9.30833 C 68.0500 % 3.73 C
597 06-04-2011 00:00:00 15.69167 C 63.4000 % 8.77 C
598 07-04-2011 00:00:00 16.35294 C 59.8739 % 8.55 C
599 08-04-2011 00:00:00 13.4925 C 56.0417 % 4.91 C
600 09-04-2011 00:00:00 12.96917 C 49.7083 % 2.72 C
Sensor: Nr:Datum:Temp:Feuchte:Taupunkt:
Aussen-T/F 601 10-04-2011 00:00:00 12.2825 C 55.3833 % 3.61 C
602 11-04-2011 00:00:00 14.76333 C 53.4583 % 5.41 C
603 12-04-2011 00:00:00 10.27917 C 57.0083 % 2.15 C
604 13-04-2011 00:00:00 7.60083 C 55.2417 % -0.79 C
605 14-04-2011 00:00:00 8.3025 C 53.3167 % -0.62 C
606 15-04-2011 00:00:00 7.43583 C 58.4250 % -0.17 C
607 16-04-2011 00:00:00 8.14667 C 54.9167 % -0.36 C
608 17-04-2011 00:00:00 11.61917 C 46.3000 % 0.5 C
609 18-04-2011 00:00:00 10.9521 C 55.2605 % 2.34 C
610 19-04-2011 00:00:00 12.87583 C 55.1250 % 4.1 C
611 20-04-2011 00:00:00 13.54917 C 55.3917 % 4.79 C
612 21-04-2011 00:00:00 14.49333 C 54.9917 % 5.57 C
613 22-04-2011 00:00:00 16.35083 C 55.1083 % 7.33 C
614 23-04-2011 00:00:00 18.26083 C 59.3250 % 10.2 C
615 24-04-2011 00:00:00 16.74333 C 54.1333 % 7.43 C
616 25-04-2011 00:00:00 15.975 C 45.3000 % 4.16 C
617 26-04-2011 00:00:00 12.8275 C 60.7167 % 5.44 C
618 27-04-2011 00:00:00 11.27167 C 76.9583 % 7.38 C
619 28-04-2011 00:00:00 13.99 C 71.8583 % 9 C
620 29-04-2011 00:00:00 15.08333 C 65.8750 % 8.76 C
621 30-04-2011 00:00:00 15.42 C 56.5500 % 6.84 C
622 01-05-2011 00:00:00 15.09328 C 37.9496 % 0.88 C
623 02-05-2011 00:00:00 11.83333 C 44.3167 % 0.09 C
624 03-05-2011 00:00:00 10.93167 C 41.8667 % -1.5 C
625 04-05-2011 00:00:00 8.28 C 53.9417 % -0.48 C
Sensor: Nr:Datum:Temp:Feuchte:Taupunkt:
Aussen-T/F 626 05-05-2011 00:00:00 10.32333 C 55.8000 % 1.89 C
627 06-05-2011 00:00:00 13.52917 C 53.1000 % 4.17 C
628 07-05-2011 00:00:00 17.6125 C 49.5667 % 6.95 C
629 08-05-2011 00:00:00 19.07167 C 37.5667 % 4.28 C
630 09-05-2011 00:00:00 18.40083 C 39.3250 % 4.33 C
631 10-05-2011 00:00:00 17.95833 C 50.2083 % 7.45 C
632 11-05-2011 00:00:00 18.40667 C 60.4833 % 10.63 C
633 12-05-2011 00:00:00 15.77833 C 53.4917 % 6.36 C
634 13-05-2011 00:00:00 13.68403 C 52.7983 % 4.24 C
635 14-05-2011 00:00:00 12.59917 C 53.0417 % 3.3 C
636 15-05-2011 00:00:00 10.34333 C 63.7833 % 3.79 C
637 16-05-2011 00:00:00 12.58667 C 60.3917 % 5.13 C
638 17-05-2011 00:00:00 17.04083 C 51.7667 % 7.06 C
639 18-05-2011 00:00:00 16.60583 C 55.1333 % 7.57 C
640 19-05-2011 00:00:00 17.10833 C 62.0917 % 9.8 C
641 20-05-2011 00:00:00 16.53 C 72.2833 % 11.53 C
642 21-05-2011 00:00:00 19.16077 C 60.6385 % 11.38 C
643 22-05-2011 00:00:00 16.79593 C 62.6667 % 9.64 C
644 23-05-2011 00:00:00 16.00167 C 49.6833 % 5.5 C
645 24-05-2011 00:00:00 15.90583 C 48.1000 % 4.95 C
646 25-05-2011 00:00:00 15.29333 C 44.6833 % 3.34 C
647 26-05-2011 00:00:00 16.04833 C 43.0167 % 3.49 C
648 27-05-2011 00:00:00 14.61 C 44.7667 % 2.75 C
649 28-05-2011 00:00:00 15.2875 C 48.6000 % 4.53 C
650 29-05-2011 00:00:00 19.21849 C 41.4286 % 5.81 C
Sensor: Nr:Datum:Temp:Feuchte:Taupunkt:
Aussen-T/F 651 30-05-2011 00:00:00 20.91333 C 47.3750 % 9.3 C
652 31-05-2011 00:00:00 14.84583 C 71.3000 % 9.7 C
653 01-06-2011 00:00:00 14.86083 C 55.0833 % 5.94 C
654 02-06-2011 00:00:00 19.79167 C 41.8750 % 6.48 C
655 03-06-2011 00:00:00 20.65583 C 37.7917 % 5.77 C
656 04-06-2011 00:00:00 21.20417 C 56.0500 % 12.1 C
657 05-06-2011 00:00:00 18.63333 C 81.4833 % 15.4 C
658 06-06-2011 00:00:00 18.38667 C 75.9000 % 14.06 C
659 07-06-2011 00:00:00 20.62417 C 61.2917 % 12.92 C
660 08-06-2011 00:00:00 15.695 C 66.5583 % 9.49 C
661 09-06-2011 00:00:00 14.09328 C 68.2437 % 8.34 C
662 10-06-2011 00:00:00 14.6563 C 70.2437 % 9.3 C
663 11-06-2011 00:00:00 15.99417 C 59.1250 % 8.03 C
664 12-06-2011 00:00:00 15.21167 C 56.7750 % 6.7 C
665 13-06-2011 00:00:00 16.92167 C 58.7417 % 8.8 C
666 14-06-2011 00:00:00 20.63333 C 59.4000 % 12.45 C
667 15-06-2011 00:00:00 19.88909 C 59.3000 % 11.72 C
668 16-06-2011 00:00:00 15.99375 C 61.2500 % 8.54 C
669 17-06-2011 00:00:00 15.96417 C 59.6833 % 8.14 C
670 18-06-2011 00:00:00 15.91083 C 58.8917 % 7.89 C
671 19-06-2011 00:00:00 14.57917 C 57.0417 % 6.18 C
672 20-06-2011 00:00:00 13.67417 C 78.2583 % 9.96 C
673 21-06-2011 00:00:00 19.2575 C 67.7583 % 13.15 C
674 22-06-2011 00:00:00 18.02773 C 72.1597 % 12.94 C
675 23-06-2011 00:00:00 16.265 C 59.2250 % 8.3 C
Sensor: Nr:Datum:Temp:Feuchte:Taupunkt:
Aussen-T/F 676 24-06-2011 00:00:00 14.2775 C 58.5250 % 6.27 C
677 25-06-2011 00:00:00 13.42417 C 77.5000 % 9.57 C
678 26-06-2011 00:00:00 15 C 80.0000 % 11.58 C
679 27-06-2011 00:00:00 17.65667 C 72.5083 % 12.66 C
680 28-06-2011 00:00:00 25.33167 C 49.5333 % 14.02 C
681 29-06-2011 00:00:00 20.62 C 64.0583 % 13.59 C
682 30-06-2011 00:00:00 17.92833 C 46.7417 % 6.39 C
683 01-07-2011 00:00:00 15.115 C 62.0000 % 7.9 C
684 02-07-2011 00:00:00 14.5975 C 56.8083 % 6.14 C
685 03-07-2011 00:00:00 16.92083 C 48.2583 % 5.93 C
686 04-07-2011 00:00:00 16.2 C 55.0000 % 7.16 C
687 05-07-2011 00:00:00 24.435 C 44.7625 % 11.65 C
688 06-07-2011 00:00:00 20.39333 C 51.4417 % 10.05 C
689 07-07-2011 00:00:00 19.52083 C 53.1917 % 9.75 C
690 08-07-2011 00:00:00 19.92333 C 49.6583 % 9.1 C
691 09-07-2011 00:00:00 21.28083 C 46.1667 % 9.26 C
692 10-07-2011 00:00:00 18.22833 C 60.4000 % 10.44 C
693 11-07-2011 00:00:00 20.90417 C 55.0583 % 11.55 C
694 12-07-2011 00:00:00 19.89917 C 61.4750 % 12.28 C
695 13-07-2011 00:00:00 15.985 C 78.1250 % 12.18 C
696 14-07-2011 00:00:00 15.70417 C 52.2083 % 5.94 C
697 15-07-2011 00:00:00 18.7025 C 41.8750 % 5.5 C
698 16-07-2011 00:00:00 18.92269 C 46.1933 % 7.12 C
699 17-07-2011 00:00:00 17.68667 C 65.9583 % 11.25 C
700 18-07-2011 00:00:00 16.98583 C 56.7583 % 8.35 C
Sensor: Nr:Datum:Temp:Feuchte:Taupunkt:
Aussen-T/F 701 19-07-2011 00:00:00 16.52167 C 65.5917 % 10.06 C
702 20-07-2011 00:00:00 15.91917 C 76.3167 % 11.76 C
703 21-07-2011 00:00:00 16.59583 C 76.6083 % 12.47 C
704 22-07-2011 00:00:00 16.87083 C 58.2333 % 8.62 C
705 23-07-2011 00:00:00 13.94417 C 62.1417 % 6.82 C
706 24-07-2011 00:00:00 12.63083 C 75.5917 % 8.44 C
707 25-07-2011 00:00:00 16.39417 C 63.4083 % 9.44 C
708 26-07-2011 00:00:00 16.5375 C 73.3667 % 11.76 C
709 27-07-2011 00:00:00 17.045 C 76.9417 % 12.97 C
710 28-07-2011 00:00:00 18.71345 C 71.7899 % 13.52 C
711 29-07-2011 00:00:00 17.87583 C 65.5000 % 11.33 C
712 30-07-2011 00:00:00 15.04833 C 66.9083 % 8.95 C
713 31-07-2011 00:00:00 15.27667 C 58.7917 % 7.27 C
714 01-08-2011 00:00:00 16.885 C 62.5250 % 9.69 C
715 02-08-2011 00:00:00 20.45917 C 60.0667 % 12.45 C
716 03-08-2011 00:00:00 19.3425 C 74.8750 % 14.77 C
717 04-08-2011 00:00:00 21.59083 C 66.0417 % 14.98 C
718 05-08-2011 00:00:00 22.10417 C 66.0500 % 15.47 C
719 06-08-2011 00:00:00 19.43333 C 80.8333 % 16.06 C
720 07-08-2011 00:00:00 17.99583 C 60.5083 % 10.25 C
721 08-08-2011 00:00:00 15.61 C 65.0500 % 9.07 C
722 09-08-2011 00:00:00 15.21177 C 65.5882 % 8.82 C
723 10-08-2011 00:00:00 11.545 C 70.7500 % 6.42 C
724 11-08-2011 00:00:00 15.27417 C 59.8917 % 7.54 C
725 12-08-2011 00:00:00 17.7625 C 71.7917 % 12.61 C
Sensor: Nr:Datum:Temp:Feuchte:Taupunkt:
Aussen-T/F 726 13-08-2011 00:00:00 19.08833 C 72.0417 % 13.93 C
727 14-08-2011 00:00:00 18.79167 C 79.1417 % 15.1 C
728 15-08-2011 00:00:00 19.07917 C 64.2167 % 12.17 C
729 16-08-2011 00:00:00 18.73083 C 60.4333 % 10.92 C
730 17-08-2011 00:00:00 18.89 C 66.1833 % 12.45 C
731 18-08-2011 00:00:00 22.63167 C 61.2417 % 14.79 C
732 19-08-2011 00:00:00 19.24667 C 68.7333 % 13.36 C
733 20-08-2011 00:00:00 18.59833 C 65.7167 % 12.06 C
734 21-08-2011 00:00:00 20.63583 C 69.0417 % 14.76 C
735 22-08-2011 00:00:00 23.83613 C 62.0504 % 16.13 C
736 23-08-2011 00:00:00 23.46583 C 60.9833 % 15.51 C
737 24-08-2011 00:00:00 20.97833 C 67.3417 % 14.7 C
738 25-08-2011 00:00:00 20.68833 C 69.8333 % 14.99 C
739 26-08-2011 00:00:00 20.87 C 74.2833 % 16.12 C
740 27-08-2011 00:00:00 15.035 C 76.8333 % 11.01 C
741 28-08-2011 00:00:00 15.25583 C 63.6333 % 8.41 C
742 29-08-2011 00:00:00 14.68667 C 59.3667 % 6.86 C
743 30-08-2011 00:00:00 12.15833 C 69.4583 % 6.74 C
744 31-08-2011 00:00:00 13.1325 C 69.1000 % 7.6 C
745 01-09-2011 00:00:00 15.16083 C 67.3250 % 9.15 C
746 02-09-2011 00:00:00 17.55667 C 71.4250 % 12.33 C
747 03-09-2011 00:00:00 20.71597 C 69.7311 % 14.99 C
748 04-09-2011 00:00:00 21.65833 C 66.8333 % 15.23 C
749 05-09-2011 00:00:00 17.79667 C 52.4583 % 7.95 C
750 06-09-2011 00:00:00 15.93333 C 57.8333 % 7.64 C
Sensor: Nr:Datum:Temp:Feuchte:Taupunkt:
Aussen-T/F 751 07-09-2011 00:00:00 16.43 C 56.2417 % 7.7 C
752 08-09-2011 00:00:00 15.3775 C 59.5333 % 7.55 C
753 09-09-2011 00:00:00 18.46 C 74.5500 % 13.86 C
754 10-09-2011 00:00:00 21.15667 C 77.6667 % 17.1 C
755 11-09-2011 00:00:00 17.895 C 81.2500 % 14.64 C
756 12-09-2011 00:00:00 17.43583 C 68.8250 % 11.65 C
757 13-09-2011 00:00:00 18.005 C 66.8333 % 11.75 C
758 14-09-2011 00:00:00 14.43917 C 60.2417 % 6.84 C
759 15-09-2011 00:00:00 13.91583 C 66.4583 % 7.78 C
760 16-09-2011 00:00:00 12.79667 C 78.8750 % 9.23 C
761 17-09-2011 00:00:00 16.78824 C 67.5798 % 10.76 C
762 18-09-2011 00:00:00 12.7625 C 73.2333 % 8.1 C
763 19-09-2011 00:00:00 12.76833 C 68.7167 % 7.17 C
764 20-09-2011 00:00:00 12.41333 C 74.0667 % 7.93 C
765 21-09-2011 00:00:00 13.775 C 70.1333 % 8.43 C
766 22-09-2011 00:00:00 15.79167 C 59.3417 % 7.89 C
767 23-09-2011 00:00:00 14.20917 C 64.8250 % 7.69 C
768 24-09-2011 00:00:00 12.8025 C 74.2750 % 8.34 C
769 25-09-2011 00:00:00 14.1125 C 76.8000 % 10.11 C
770 26-09-2011 00:00:00 15.74917 C 76.1250 % 11.56 C
771 27-09-2011 00:00:00 17.1525 C 74.8583 % 12.66 C
772 28-09-2011 00:00:00 16.71 C 77.5333 % 12.77 C
773 29-09-2011 00:00:00 16.13167 C 75.2500 % 11.75 C
774 30-09-2011 00:00:00 14.48824 C 75.4034 % 10.2 C
775 01-10-2011 00:00:00 14.3525 C 77.3833 % 10.45 C
Sensor: Nr:Datum:Temp:Feuchte:Taupunkt:
Aussen-T/F 776 02-10-2011 00:00:00 14.74 C 77.1417 % 10.78 C
777 03-10-2011 00:00:00 15.125 C 75.4750 % 10.82 C
778 04-10-2011 00:00:00 16.96167 C 63.1167 % 9.9 C
779 05-10-2011 00:00:00 17.94667 C 59.6250 % 9.98 C
780 06-10-2011 00:00:00 14.175 C 69.3833 % 8.66 C
781 07-10-2011 00:00:00 9.92583 C 66.5083 % 3.99 C
782 08-10-2011 00:00:00 9.01167 C 73.3417 % 4.51 C
783 09-10-2011 00:00:00 9.11667 C 79.0750 % 5.69 C
784 10-10-2011 00:00:00 16.5475 C 68.2167 % 10.67 C
785 11-10-2011 00:00:00 16.37917 C 62.5417 % 9.22 C
786 12-10-2011 00:00:00 15.74333 C 66.8000 % 9.59 C
787 13-10-2011 00:00:00 10.145 C 73.3667 % 5.6 C
788 14-10-2011 00:00:00 6.14286 C 78.8151 % 2.75 C
789 15-10-2011 00:00:00 4.65417 C 78.8000 % 1.3 C
790 16-10-2011 00:00:00 4.29833 C 79.7583 % 1.12 C
791 17-10-2011 00:00:00 6.42917 C 82.1833 % 3.62 C
792 18-10-2011 00:00:00 8.99833 C 81.0167 % 5.92 C
793 19-10-2011 00:00:00 8.2025 C 70.7333 % 3.21 C
794 20-10-2011 00:00:00 5.4275 C 79.8333 % 2.23 C
795 21-10-2011 00:00:00 3.16333 C 87.6917 % 1.32 C
796 22-10-2011 00:00:00 3.45333 C 82.2083 % 0.71 C
797 23-10-2011 00:00:00 2.44833 C 85.8917 % 0.33 C
798 24-10-2011 00:00:00 5.85083 C 75.8167 % 1.92 C
799 25-10-2011 00:00:00 9.17417 C 73.4750 % 4.69 C
800 26-10-2011 00:00:00 9.305 C 71.1750 % 4.36 C
Sensor: Nr:Datum:Temp:Feuchte:Taupunkt:
Aussen-T/F 801 27-10-2011 00:00:00 5.69333 C 85.4917 % 3.46 C
802 28-10-2011 00:00:00 8.32857 C 86.7731 % 6.26 C
803 29-10-2011 00:00:00 10.61667 C 83.0000 % 7.85 C
804 30-10-2011 00:00:00 12.2192 C 86.1680 % 9.98 C
805 31-10-2011 00:00:00 11.39 C 86.4000 % 9.2 C
806 01-11-2011 00:00:00 9.17333 C 84.4083 % 6.69 C
807 02-11-2011 00:00:00 10.59667 C 80.8500 % 7.45 C
808 03-11-2011 00:00:00 11.35583 C 71.9417 % 6.48 C
809 04-11-2011 00:00:00 10.15333 C 80.0500 % 6.87 C
810 05-11-2011 00:00:00 10.31333 C 76.4167 % 6.35 C
811 06-11-2011 00:00:00 8.90583 C 84.0333 % 6.36 C
812 07-11-2011 00:00:00 8.85 C 80.9583 % 5.77 C
813 08-11-2011 00:00:00 5.84583 C 87.4583 % 3.93 C
814 09-11-2011 00:00:00 6.5025 C 86.5500 % 4.43 C
815 10-11-2011 00:00:00 6.29328 C 81.6218 % 3.39 C
816 11-11-2011 00:00:00 6.25417 C 76.0750 % 2.36 C
817 12-11-2011 00:00:00 4.20083 C 82.4417 % 1.48 C
818 13-11-2011 00:00:00 4.15833 C 85.7750 % 1.99 C
819 14-11-2011 00:00:00 0.35917 C 92.4167 % -0.72 C
820 15-11-2011 00:00:00 0.25583 C 92.2667 % -0.85 C
821 16-11-2011 00:00:00 -1.305 C 91.7000 % -2.48 C
822 17-11-2011 00:00:00 3.935 C 80.2583 % 0.85 C
823 18-11-2011 00:00:00 7.49833 C 83.7333 % 4.93 C
824 19-11-2011 00:00:00 5.435 C 89.5667 % 3.86 C
825 20-11-2011 00:00:00 6.58083 C 80.3583 % 3.45 C
Sensor: Nr:Datum:Temp:Feuchte:Taupunkt:
Aussen-T/F 826 21-11-2011 00:00:00 1.40917 C 92.2250 % 0.29 C
827 22-11-2011 00:00:00 1.14083 C 92.1583 % 0.01 C
828 23-11-2011 00:00:00 1.59583 C 92.8833 % 0.57 C
829 24-11-2011 00:00:00 2.37083 C 92.1167 % 1.23 C
830 25-11-2011 00:00:00 1.0775 C 85.7083 % -1.04 C
831 26-11-2011 00:00:00 6.25167 C 75.0583 % 2.17 C
832 27-11-2011 00:00:00 7.40833 C 70.7917 % 2.46 C
833 28-11-2011 00:00:00 0.83833 C 92.3250 % -0.26 C
834 29-11-2011 00:00:00 1.88167 C 89.6667 % 0.37 C
835 30-11-2011 00:00:00 4.85083 C 85.9250 % 2.7 C
836 01-12-2011 00:00:00 5.52417 C 87.8333 % 3.67 C
837 02-12-2011 00:00:00 7.12667 C 77.6917 % 3.5 C
838 03-12-2011 00:00:00 6.26583 C 76.7250 % 2.49 C
839 04-12-2011 00:00:00 8.2975 C 80.9000 % 5.22 C
840 05-12-2011 00:00:00 4.38417 C 71.7167 % -0.26 C
841 06-12-2011 00:00:00 4.445 C 67.2500 % -1.08 C
842 07-12-2011 00:00:00 5.57833 C 70.8167 % 0.71 C
843 08-12-2011 00:00:00 6.22333 C 62.1250 % -0.48 C
844 09-12-2011 00:00:00 5.94583 C 71.2167 % 1.14 C
845 10-12-2011 00:00:00 1.885 C 76.4500 % -1.81 C
846 11-12-2011 00:00:00 0.43667 C 83.0417 % -2.1 C
847 12-12-2011 00:00:00 5.96583 C 76.8000 % 2.21 C
848 13-12-2011 00:00:00 6.86417 C 68.8250 % 1.55 C
849 14-12-2011 00:00:00 6.68371 C 80.3447 % 3.55 C
850 15-12-2011 00:00:00 6.13646 C 77.7778 % 2.56 C
Sensor: Nr:Datum:Temp:Feuchte:Taupunkt:
Aussen-T/F 851 16-12-2011 00:00:00 6.07222 C 83.0347 % 3.41 C
852 17-12-2011 00:00:00 3.63507 C 84.7535 % 1.31 C
853 18-12-2011 00:00:00 2.25764 C 86.7604 % 0.29 C
854 19-12-2011 00:00:00 1.70208 C 86.1250 % -0.36 C
855 20-12-2011 00:00:00 2.28715 C 90.9132 % 0.96 C
856 21-12-2011 00:00:00 4.19792 C 87.9167 % 2.38 C
857 22-12-2011 00:00:00 6.57917 C 94.6910 % 5.79 C
858 23-12-2011 00:00:00 8.41806 C 90.8021 % 7 C
859 24-12-2011 00:00:00 5.63368 C 83.5243 % 3.07 C
860 25-12-2011 00:00:00 5.68472 C 86.3750 % 3.59 C
861 26-12-2011 00:00:00 8.12222 C 89.4931 % 6.5 C
862 27-12-2011 00:00:00 8.25139 C 89.0139 % 6.55 C
863 28-12-2011 00:00:00 5.71424 C 86.6597 % 3.67 C
864 29-12-2011 00:00:00 5.51667 C 80.4757 % 2.43 C
865 30-12-2011 00:00:00 4.24861 C 83.3125 % 1.68 C
866 31-12-2011 00:00:00 5.15729 C 93.6007 % 4.21 C
867 01-01-2012 00:00:00 12.02807 C 88.3754 % 10.17 C
868 02-01-2012 00:00:00 8.87847 C 88.2917 % 7.05 C
869 03-01-2012 00:00:00 7.43403 C 81.7917 % 4.53 C
870 04-01-2012 00:00:00 6.56875 C 76.5174 % 2.75 C
871 05-01-2012 00:00:00 6.88368 C 80.3785 % 3.75 C
872 06-01-2012 00:00:00 5.40208 C 81.6389 % 2.52 C
873 07-01-2012 00:00:00 5.54653 C 84.9201 % 3.22 C
874 08-01-2012 00:00:00 5.96042 C 84.6111 % 3.57 C
875 09-01-2012 00:00:00 6.11424 C 89.9479 % 4.59 C
Sensor: Nr:Datum:Temp:Feuchte:Taupunkt:
Aussen-T/F 876 10-01-2012 00:00:00 6.93056 C 91.1319 % 5.59 C
877 11-01-2012 00:00:00 8.11597 C 82.0938 % 5.25 C
878 12-01-2012 00:00:00 8.18819 C 82.4028 % 5.37 C
879 13-01-2012 00:00:00 5.12569 C 75.8264 % 1.22 C
880 14-01-2012 00:00:00 3.95417 C 78.8958 % 0.63 C
881 15-01-2012 00:00:00 -0.23715 C 94.8993 % -0.95 C
882 16-01-2012 00:00:00 -1.80312 C 94.0521 % -2.63 C
883 17-01-2012 00:00:00 -2.78368 C 92.5069 % -3.83 C
884 18-01-2012 00:00:00 -0.12708 C 89.9653 % -1.57 C
885 19-01-2012 00:00:00 6.67639 C 90.1007 % 5.17 C
886 20-01-2012 00:00:00 4.025 C 86.9236 % 2.05 C
887 21-01-2012 00:00:00 5.73681 C 89.5382 % 4.15 C
888 22-01-2012 00:00:00 6.85764 C 76.0660 % 2.94 C
889 23-01-2012 00:00:00 5.22708 C 82.6806 % 2.53 C
890 24-01-2012 00:00:00 3.1191 C 90.7222 % 1.75 C
891 25-01-2012 00:00:00 0.47708 C 94.7813 % -0.26 C
892 26-01-2012 00:00:00 1.84132 C 84.3368 % -0.51 C
893 27-01-2012 00:00:00 2.58437 C 92.0104 % 1.42 C
894 28-01-2012 00:00:00 2.69896 C 87.8090 % 0.89 C
895 29-01-2012 00:00:00 0.84583 C 81.3299 % -1.98 C
896 30-01-2012 00:00:00 -0.00208 C 80.3854 % -2.97 C
897 31-01-2012 00:00:00 -1.90972 C 70.0243 % -6.64 C
898 01-02-2012 00:00:00 -5.28403 C 61.1667 % -11.58 C
899 02-02-2012 00:00:00 -7.12396 C 51.7535 % -15.35 C
900 03-02-2012 00:00:00 -8.52361 C 68.2153 % -13.32 C
Sensor: Nr:Datum:Temp:Feuchte:Taupunkt:
Aussen-T/F 901 04-02-2012 00:00:00 -8.31389 C 77.7396 % -11.5 C
902 05-02-2012 00:00:00 -9.04861 C 72.3715 % -13.1 C
903 06-02-2012 00:00:00 -9.67674 C 69.6979 % -14.16 C
904 07-02-2012 00:00:00 -9.19832 C 69.3067 % -13.77 C
905 08-02-2012 00:00:00 -5.57083 C 72.6528 % -9.69 C
906 09-02-2012 00:00:00 -7.39479 C 86.5868 % -9.24 C
907 10-02-2012 00:00:00 -6.11875 C 75.6354 % -9.71 C
908 11-02-2012 00:00:00 -8.24931 C 70.5451 % -12.64 C
909 12-02-2012 00:00:00 -6.58063 C 72.4466 % -10.7 C
910 13-02-2012 00:00:00 -0.88993 C 82.6458 % -3.46 C
911 14-02-2012 00:00:00 1.59931 C 93.4410 % 0.66 C
912 15-02-2012 00:00:00 3.97674 C 86.0694 % 1.86 C
913 16-02-2012 00:00:00 3.54896 C 91.1875 % 2.25 C
914 17-02-2012 00:00:00 5.57917 C 87.8576 % 3.73 C
915 18-02-2012 00:00:00 6.37083 C 88.0556 % 4.54 C
916 19-02-2012 00:00:00 2.99271 C 87.9861 % 1.2 C
917 20-02-2012 00:00:00 1.18333 C 84.9583 % -1.06 C
918 21-02-2012 00:00:00 1.84583 C 78.4063 % -1.5 C
919 22-02-2012 00:00:00 3.17951 C 81.1493 % 0.27 C
920 23-02-2012 00:00:00 6.17352 C 81.6864 % 3.28 C
921 24-02-2012 00:00:00 9.38101 C 86.6938 % 7.28 C
922 25-02-2012 00:00:00 8.6186 C 80.9439 % 5.54 C
923 26-02-2012 00:00:00 5.29167 C 88.4757 % 3.55 C
924 27-02-2012 00:00:00 5.81944 C 83.3333 % 3.22 C
925 28-02-2012 00:00:00 8.57639 C 85.4861 % 6.28 C
Sensor: Nr:Datum:Temp:Feuchte:Taupunkt:
Aussen-T/F 926 29-02-2012 00:00:00 9.49583 C 92.3403 % 8.32 C
927 01-03-2012 00:00:00 9.01563 C 93.6979 % 8.06 C
928 02-03-2012 00:00:00 8.57986 C 92.6771 % 7.46 C
929 03-03-2012 00:00:00 7.91597 C 90.3438 % 6.43 C
930 04-03-2012 00:00:00 8.65625 C 81.6354 % 5.7 C
931 05-03-2012 00:00:00 5.81597 C 77.6597 % 2.22 C
932 06-03-2012 00:00:00 5.43924 C 73.2222 % 1.04 C
933 07-03-2012 00:00:00 2.91784 C 81.1970 % 0.02 C
934 08-03-2012 00:00:00 5.35833 C 80.5347 % 2.29 C
935 09-03-2012 00:00:00 4.88437 C 78.4410 % 1.46 C
936 10-03-2012 00:00:00 8.58723 C 78.8759 % 5.14 C
937 11-03-2012 00:00:00 9.26151 C 82.9496 % 6.52 C
938 12-03-2012 00:00:00 8.06347 C 86.5240 % 5.96 C
939 13-03-2012 00:00:00 7.68299 C 83.6458 % 5.1 C
940 14-03-2012 00:00:00 6.93542 C 78.8819 % 3.53 C
941 15-03-2012 00:00:00 7.07812 C 79.2431 % 3.73 C
942 16-03-2012 00:00:00 10.0412 C 69.7077 % 4.77 C
943 17-03-2012 00:00:00 9.42917 C 75.0799 % 5.24 C
944 18-03-2012 00:00:00 8.64931 C 83.8368 % 6.07 C
945 19-03-2012 00:00:00 7.34303 C 72.1270 % 2.66 C
946 20-03-2012 00:00:00 6.68807 C 68.1687 % 1.25 C
947 21-03-2012 00:00:00 7.73902 C 69.3206 % 2.49 C
948 22-03-2012 00:00:00 10.04583 C 71.3403 % 5.1 C
949 23-03-2012 00:00:00 11.69132 C 71.9826 % 6.82 C
950 24-03-2012 00:00:00 11.62674 C 70.9132 % 6.54 C
Sensor: Nr:Datum:Temp:Feuchte:Taupunkt:
Aussen-T/F 951 25-03-2012 00:00:00 12.80873 C 62.8291 % 5.91 C
952 26-03-2012 00:00:00 11.16806 C 58.5764 % 3.36 C
953 27-03-2012 00:00:00 11.10694 C 65.9826 % 5 C
954 28-03-2012 00:00:00 11.74201 C 67.7188 % 5.98 C
955 29-03-2012 00:00:00 9.58194 C 71.1354 % 4.62 C
956 30-03-2012 00:00:00 9.39062 C 79.1701 % 5.97 C
957 31-03-2012 00:00:00 7.98706 C 76.3042 % 4.08 C
958 01-04-2012 00:00:00 4.77396 C 63.6736 % -1.51 C
959 02-04-2012 00:00:00 6.69514 C 71.1493 % 1.85 C
960 03-04-2012 00:00:00 11.08125 C 62.9931 % 4.31 C
961 04-04-2012 00:00:00 9.89722 C 82.2743 % 7.02 C
962 05-04-2012 00:00:00 7.74514 C 80.8958 % 4.68 C
963 06-04-2012 00:00:00 7.88292 C 67.6655 % 2.28 C
964 07-04-2012 00:00:00 5.61389 C 72.7882 % 1.13 C
965 08-04-2012 00:00:00 5.19194 C 54.1941 % -3.29 C
966 09-04-2012 00:00:00 7.24583 C 83.3264 % 4.61 C
967 10-04-2012 00:00:00 11.25451 C 77.8646 % 7.54 C
968 11-04-2012 00:00:00 9.71215 C 72.8056 % 5.08 C
969 12-04-2012 00:00:00 6.41736 C 84.4444 % 3.99 C
970 13-04-2012 00:00:00 6.76632 C 81.2847 % 3.79 C
971 14-04-2012 00:00:00 7.83021 C 71.5486 % 3.02 C
972 15-04-2012 00:00:00 8.52361 C 73.9826 % 4.16 C
973 16-04-2012 00:00:00 5.92438 C 63.9835 % -0.36 C
974 17-04-2012 00:00:00 5.90382 C 59.8090 % -1.3 C
975 18-04-2012 00:00:00 8.72674 C 72.5451 % 4.08 C
Sensor: Nr:Datum:Temp:Feuchte:Taupunkt:
Aussen-T/F 976 19-04-2012 00:00:00 8.47422 C 80.8084 % 5.37 C
977 20-04-2012 00:00:00 7.34574 C 84.4529 % 4.9 C
978 21-04-2012 00:00:00 8.16701 C 81.3229 % 5.16 C
979 22-04-2012 00:00:00 7.84306 C 80.2049 % 4.65 C
980 23-04-2012 00:00:00 8.39097 C 79.6389 % 5.08 C
981 24-04-2012 00:00:00 8.89757 C 84.6181 % 6.45 C
982 25-04-2012 00:00:00 10.14167 C 78.2292 % 6.53 C
983 26-04-2012 00:00:00 11.47083 C 79.8958 % 8.13 C
984 27-04-2012 00:00:00 12.5625 C 82.5104 % 9.67 C
985 28-04-2012 00:00:00 18.10903 C 72.5139 % 13.09 C
986 29-04-2012 00:00:00 16.89826 C 73.1979 % 12.07 C
987 30-04-2012 00:00:00 17.93194 C 63.6007 % 10.94 C
988 01-05-2012 00:00:00 17.12465 C 71.7708 % 11.99 C
989 02-05-2012 00:00:00 15.24479 C 86.9549 % 13.09 C
990 03-05-2012 00:00:00 13.43472 C 77.5035 % 9.59 C
991 04-05-2012 00:00:00 14.57083 C 73.6806 % 9.93 C
992 05-05-2012 00:00:00 11.45069 C 92.9271 % 10.35 C
993 06-05-2012 00:00:00 10.57674 C 92.8021 % 9.46 C
994 07-05-2012 00:00:00 10.38681 C 83.5556 % 7.73 C
995 08-05-2012 00:00:00 13.89063 C 73.1215 % 9.16 C
996 09-05-2012 00:00:00 16.78229 C 82.0903 % 13.71 C
997 10-05-2012 00:00:00 19.11111 C 78.7257 % 15.33 C
998 11-05-2012 00:00:00 19.125 C 80.7014 % 15.73 C
999 12-05-2012 00:00:00 11.31289 C 69.8188 % 6.01 C
1000 13-05-2012 00:00:00 9.38646 C 66.5382 % 3.48 C
Sensor: Nr:Datum:Temp:Feuchte:Taupunkt:
Aussen-T/F 1001 14-05-2012 00:00:00 11.40799 C 62.7778 % 4.57 C
1002 15-05-2012 00:00:00 9.5625 C 74.6979 % 5.3 C
1003 16-05-2012 00:00:00 8.66597 C 76.0417 % 4.69 C
1004 17-05-2012 00:00:00 9.38889 C 67.5799 % 3.7 C
1005 18-05-2012 00:00:00 12.68299 C 77.1667 % 8.79 C
1006 19-05-2012 00:00:00 15.71389 C 82.6667 % 12.77 C
1007 20-05-2012 00:00:00 17.6684 C 78.6076 % 13.91 C
1008 21-05-2012 00:00:00 18.52986 C 81.4410 % 15.29 C
1009 22-05-2012 00:00:00 21.31944 C 73.3576 % 16.36 C
1010 23-05-2012 00:00:00 18.79965 C 89.2743 % 17 C
1011 24-05-2012 00:00:00 20.69687 C 73.7639 % 15.85 C
1012 25-05-2012 00:00:00 19.45313 C 48.2882 % 8.25 C
1013 26-05-2012 00:00:00 18.11007 C 54.3056 % 8.75 C
1014 27-05-2012 00:00:00 18.05868 C 62.2743 % 10.74 C
1015 28-05-2012 00:00:00 18.93417 C 63.8705 % 11.95 C
1016 29-05-2012 00:00:00 18.46288 C 64.9508 % 11.76 C
1017 30-05-2012 00:00:00 17.68438 C 78.7569 % 13.95 C
1018 31-05-2012 00:00:00 16.03021 C 84.4167 % 13.4 C
1019 01-06-2012 00:00:00 15.74271 C 76.1632 % 11.56 C
1020 02-06-2012 00:00:00 15.19271 C 70.5938 % 9.89 C
1021 03-06-2012 00:00:00 12.60255 C 88.8727 % 10.82 C
1022 04-06-2012 00:00:00 13.31389 C 85.8576 % 11 C
1023 05-06-2012 00:00:00 12.15312 C 69.0486 % 6.65 C
1024 06-06-2012 00:00:00 13.09444 C 86.8056 % 10.95 C
1025 07-06-2012 00:00:00 16.45799 C 88.8576 % 14.62 C
Sensor: Nr:Datum:Temp:Feuchte:Taupunkt:
Aussen-T/F 1026 08-06-2012 00:00:00 17.34097 C 72.3854 % 12.33 C
1027 09-06-2012 00:00:00 14.79028 C 66.1215 % 8.53 C
1028 10-06-2012 00:00:00 15.29514 C 66.6736 % 9.14 C
1029 11-06-2012 00:00:00 14.57014 C 84.7083 % 12.03 C
1030 12-06-2012 00:00:00 14.40729 C 86.0764 % 12.11 C
1031 13-06-2012 00:00:00 12.57363 C 92.7692 % 11.44 C
1032 14-06-2012 00:00:00 14.15694 C 81.5104 % 11.04 C
1033 15-06-2012 00:00:00 16.11806 C 85.0833 % 13.61 C
1034 16-06-2012 00:00:00 15.40799 C 92.7326 % 14.24 C
1035 17-06-2012 00:00:00 17.28021 C 70.4549 % 11.86 C
1036 18-06-2012 00:00:00 18.57292 C 74.0694 % 13.87 C
1037 19-06-2012 00:00:00 17.44028 C 82.5590 % 14.44 C
1038 20-06-2012 00:00:00 16.35833 C 96.8785 % 15.86 C
1039 21-06-2012 00:00:00 18.41354 C 89.4583 % 16.65 C
1040 22-06-2012 00:00:00 16.36181 C 75.7083 % 12.07 C
1041 23-06-2012 00:00:00 16.63472 C 71.3924 % 11.44 C
1042 24-06-2012 00:00:00 14.73507 C 82.4306 % 11.78 C
1043 25-06-2012 00:00:00 15.09028 C 78.7917 % 11.44 C
1044 26-06-2012 00:00:00 16.43125 C 73.6111 % 11.71 C
1045 27-06-2012 00:00:00 18.07569 C 84.8264 % 15.48 C
1046 28-06-2012 00:00:00 21.87465 C 80.2743 % 18.32 C
1047 29-06-2012 00:00:00 20.49063 C 90.0868 % 18.81 C
1048 30-06-2012 00:00:00 20.14965 C 78.6563 % 16.32 C
1049 01-07-2012 00:00:00 17.98889 C 81.2882 % 14.74 C
1050 02-07-2012 00:00:00 15.24444 C 86.4826 % 13 C
Sensor: Nr:Datum:Temp:Feuchte:Taupunkt:
Aussen-T/F 1051 03-07-2012 00:00:00 18.02153 C 76.9132 % 13.91 C
1052 04-07-2012 00:00:00 19.87465 C 76.5000 % 15.62 C
1053 05-07-2012 00:00:00 19.09722 C 91.7153 % 17.72 C
1054 06-07-2012 00:00:00 19.21042 C 82.2708 % 16.11 C
1055 07-07-2012 00:00:00 19.57743 C 72.4514 % 14.49 C
1056 08-07-2012 00:00:00 17.84097 C 81.3542 % 14.6 C
1057 09-07-2012 00:00:00 18.63611 C 72.1944 % 13.53 C
1058 10-07-2012 00:00:00 19.1441 C 76.7604 % 14.97 C
1059 11-07-2012 00:00:00 16.03394 C 79.6861 % 12.53 C
1060 12-07-2012 00:00:00 14.8191 C 77.8715 % 11 C
1061 13-07-2012 00:00:00 15.50417 C 89.5694 % 13.8 C
1062 14-07-2012 00:00:00 15.27708 C 87.8125 % 13.27 C
1063 15-07-2012 00:00:00 14.52014 C 86.8542 % 12.36 C
1064 16-07-2012 00:00:00 15.02292 C 79.1840 % 11.45 C
1065 17-07-2012 00:00:00 17.55035 C 76.7431 % 13.42 C
1066 18-07-2012 00:00:00 19.89649 C 72.5088 % 14.81 C
1067 19-07-2012 00:00:00 18.18194 C 70.2743 % 12.68 C
1068 20-07-2012 00:00:00 14.85872 C 85.6406 % 12.48 C
1069 21-07-2012 00:00:00 15.04167 C 80.6493 % 11.74 C
1070 22-07-2012 00:00:00 14.62049 C 74.5139 % 10.15 C
1071 23-07-2012 00:00:00 17.15069 C 68.0972 % 11.22 C
1072 24-07-2012 00:00:00 19.81701 C 70.4826 % 14.3 C
1073 25-07-2012 00:00:00 22.11408 C 72.7218 % 16.99 C
1074 26-07-2012 00:00:00 23.10764 C 73.2326 % 18.05 C
1075 27-07-2012 00:00:00 22.2566 C 82.8021 % 19.19 C
Sensor: Nr:Datum:Temp:Feuchte:Taupunkt:
Aussen-T/F 1076 28-07-2012 00:00:00 19.03507 C 92.5660 % 17.8 C
1077 29-07-2012 00:00:00 17.61875 C 75.5799 % 13.26 C
1078 30-07-2012 00:00:00 16.17396 C 70.1250 % 10.73 C
1079 31-07-2012 00:00:00 16.33993 C 79.2778 % 12.75 C
1080 01-08-2012 00:00:00 20.08194 C 75.0521 % 15.52 C
1081 02-08-2012 00:00:00 20.75938 C 75.0938 % 16.19 C
1082 03-08-2012 00:00:00 19.31771 C 71.6042 % 14.06 C
1083 04-08-2012 00:00:00 19.1 C 71.9653 % 13.93 C
1084 05-08-2012 00:00:00 19.0875 C 83.3889 % 16.21 C
1085 06-08-2012 00:00:00 18.40312 C 78.4965 % 14.6 C
1086 07-08-2012 00:00:00 17.15556 C 73.1701 % 12.31 C
1087 08-08-2012 00:00:00 16.59132 C 79.3229 % 13 C
1088 09-08-2012 00:00:00 18.49479 C 77.0868 % 14.41 C
1089 10-08-2012 00:00:00 17.33299 C 71.4028 % 12.11 C
1090 11-08-2012 00:00:00 16.29444 C 73.2604 % 11.5 C
1091 12-08-2012 00:00:00 17.40486 C 68.6181 % 11.58 C
1092 13-08-2012 00:00:00 18.22326 C 73.1944 % 13.35 C
1093 14-08-2012 00:00:00 19.78993 C 79.0521 % 16.05 C
1094 15-08-2012 00:00:00 22.31354 C 70.9549 % 16.79 C
1095 16-08-2012 00:00:00 21.27535 C 67.3125 % 14.97 C
1096 17-08-2012 00:00:00 20.12986 C 70.1146 % 14.51 C
1097 18-08-2012 00:00:00 23.0066 C 67.4271 % 16.65 C
1098 19-08-2012 00:00:00 24.67083 C 69.9722 % 18.82 C
1099 20-08-2012 00:00:00 23.43229 C 80.3090 % 19.84 C
1100 21-08-2012 00:00:00 22.6875 C 81.6771 % 19.39 C
Sensor: Nr:Datum:Temp:Feuchte:Taupunkt:
Aussen-T/F 1101 22-08-2012 00:00:00 20.95729 C 64.6042 % 14.04 C
1102 23-08-2012 00:00:00 17.78194 C 65.1285 % 11.15 C
1103 24-08-2012 00:00:00 18.62842 C 81.4105 % 15.38 C
1104 25-08-2012 00:00:00 18.46493 C 78.6458 % 14.69 C
1105 26-08-2012 00:00:00 16.26667 C 78.3021 % 12.49 C
1106 27-08-2012 00:00:00 16.32049 C 79.0486 % 12.68 C
1107 28-08-2012 00:00:00 18.03507 C 74.6076 % 13.46 C
1108 29-08-2012 00:00:00 20.02396 C 77.5486 % 15.98 C
1109 30-08-2012 00:00:00 17.48889 C 81.0208 % 14.2 C
1110 31-08-2012 00:00:00 13.93646 C 84.9132 % 11.44 C
1111 01-09-2012 00:00:00 14.49236 C 76.3785 % 10.39 C
1112 02-09-2012 00:00:00 13.96285 C 82.2604 % 10.99 C
1113 03-09-2012 00:00:00 16.22222 C 79.7535 % 12.72 C
1114 04-09-2012 00:00:00 16.86098 C 82.0105 % 13.77 C
1115 05-09-2012 00:00:00 16.4125 C 79.7500 % 12.91 C
1116 06-09-2012 00:00:00 14.63604 C 70.9187 % 9.42 C
1117 07-09-2012 00:00:00 14.4309 C 73.8368 % 9.83 C
1118 08-09-2012 00:00:00 16.83403 C 70.1076 % 11.36 C
1119 09-09-2012 00:00:00 18.54722 C 68.1563 % 12.57 C
1120 10-09-2012 00:00:00 19.67847 C 67.2465 % 13.44 C
1121 11-09-2012 00:00:00 17.74028 C 83.6910 % 14.95 C
1122 12-09-2012 00:00:00 11.13646 C 93.3750 % 10.11 C
1123 13-09-2012 00:00:00 10.78611 C 90.3368 % 9.27 C
1124 14-09-2012 00:00:00 13.01424 C 83.7639 % 10.33 C
1125 15-09-2012 00:00:00 13.44514 C 88.4410 % 11.57 C
Sensor: Nr:Datum:Temp:Feuchte:Taupunkt:
Aussen-T/F 1126 16-09-2012 00:00:00 13.24236 C 85.5903 % 10.88 C
1127 17-09-2012 00:00:00 15.15729 C 83.0208 % 12.3 C
1128 18-09-2012 00:00:00 14.10868 C 84.2188 % 11.49 C
1129 19-09-2012 00:00:00 11.7684 C 70.2292 % 6.53 C
1130 20-09-2012 00:00:00 9.9566 C 72.9271 % 5.33 C
1131 21-09-2012 00:00:00 10.62118 C 79.5069 % 7.23 C
1132 22-09-2012 00:00:00 11.53611 C 80.2917 % 8.26 C
1133 23-09-2012 00:00:00 11.58819 C 78.6007 % 8 C
1134 24-09-2012 00:00:00 14.89201 C 84.5486 % 12.31 C
1135 25-09-2012 00:00:00 12.86597 C 88.1563 % 10.96 C
1136 26-09-2012 00:00:00 12.27917 C 95.0382 % 11.51 C
1137 27-09-2012 00:00:00 12.68611 C 88.7257 % 10.88 C
1138 28-09-2012 00:00:00 12.56701 C 85.9757 % 10.29 C
1139 29-09-2012 00:00:00 11.68819 C 84.0382 % 9.08 C
1140 30-09-2012 00:00:00 9.30035 C 89.3681 % 7.64 C
1141 01-10-2012 00:00:00 9.46319 C 85.2118 % 7.11 C
1142 02-10-2012 00:00:00 12.25764 C 84.6736 % 9.75 C
1143 03-10-2012 00:00:00 14.55312 C 82.0139 % 11.52 C
1144 04-10-2012 00:00:00 12.89722 C 83.2569 % 10.13 C
1145 05-10-2012 00:00:00 13.57986 C 85.1285 % 11.13 C
1146 06-10-2012 00:00:00 14.99065 C 84.0244 % 12.32 C
1147 07-10-2012 00:00:00 10.63669 C 85.8058 % 8.36 C
1148 08-10-2012 00:00:00 8.1958 C 91.4790 % 6.89 C
1149 09-10-2012 00:00:00 10.60348 C 82.4776 % 7.75 C
1150 10-10-2012 00:00:00 6.21146 C 91.4826 % 4.93 C
Sensor: Nr:Datum:Temp:Feuchte:Taupunkt:
Aussen-T/F 1151 11-10-2012 00:00:00 6.67361 C 92.2431 % 5.51 C
1152 12-10-2012 00:00:00 10.79653 C 89.9479 % 9.22 C
1153 13-10-2012 00:00:00 9.08472 C 85.8854 % 6.85 C
1154 14-10-2012 00:00:00 8.15833 C 90.5868 % 6.71 C
1155 15-10-2012 00:00:00 7.43264 C 92.8646 % 6.36 C
1156 16-10-2012 00:00:00 7.85556 C 89.7188 % 6.27 C
1157 17-10-2012 00:00:00 10.85972 C 90.2361 % 9.33 C
1158 18-10-2012 00:00:00 14.37569 C 85.3924 % 11.96 C
1159 19-10-2012 00:00:00 14.37187 C 89.1111 % 12.6 C
1160 20-10-2012 00:00:00 13.74722 C 92.9722 % 12.63 C
1161 21-10-2012 00:00:00 13.32917 C 93.7014 % 12.34 C
1162 22-10-2012 00:00:00 11.79062 C 93.9931 % 10.86 C
1163 23-10-2012 00:00:00 11.38403 C 87.8194 % 9.44 C
1164 24-10-2012 00:00:00 9.71528 C 91.8819 % 8.46 C
1165 25-10-2012 00:00:00 9.9441 C 92.9271 % 8.85 C
1166 26-10-2012 00:00:00 6.73542 C 93.3472 % 5.74 C
1167 27-10-2012 00:00:00 2.98993 C 78.3160 % -0.41 C
1168 28-10-2012 00:00:00 0.51181 C 90.1007 % -0.92 C
1169 29-10-2012 00:00:00 0.69306 C 92.2292 % -0.42 C
1170 30-10-2012 00:00:00 6.0566 C 90.8507 % 4.68 C
1171 31-10-2012 00:00:00 5.97118 C 91.2778 % 4.66 C
1172 01-11-2012 00:00:00 7.64965 C 85.8819 % 5.44 C
1173 02-11-2012 00:00:00 7.75417 C 81.4132 % 4.78 C
1174 03-11-2012 00:00:00 7.38542 C 94.0104 % 6.49 C
1175 04-11-2012 00:00:00 7.74028 C 92.3472 % 6.58 C
Sensor: Nr:Datum:Temp:Feuchte:Taupunkt:
Aussen-T/F 1176 05-11-2012 00:00:00 8.00382 C 84.4444 % 5.55 C
1177 06-11-2012 00:00:00 6.03264 C 87.7708 % 4.16 C
1178 07-11-2012 00:00:00 8.52535 C 86.8021 % 6.46 C
1179 08-11-2012 00:00:00 8.82222 C 80.7188 % 5.7 C
1180 09-11-2012 00:00:00 8.19861 C 83.9444 % 5.65 C
1181 10-11-2012 00:00:00 8.89201 C 93.0243 % 7.83 C
1182 11-11-2012 00:00:00 8.24097 C 92.3333 % 7.07 C
1183 12-11-2012 00:00:00 5.70868 C 88.6701 % 3.99 C
1184 13-11-2012 00:00:00 3.26076 C 94.2639 % 2.43 C
1185 14-11-2012 00:00:00 2.60312 C 94.3438 % 1.79 C
1186 15-11-2012 00:00:00 4.53958 C 88.2361 % 2.77 C
1187 16-11-2012 00:00:00 3.22222 C 87.5313 % 1.36 C
1188 17-11-2012 00:00:00 4.33472 C 93.4931 % 3.38 C
1189 18-11-2012 00:00:00 7.54896 C 95.9792 % 6.95 C
1190 19-11-2012 00:00:00 7.68403 C 95.0035 % 6.94 C
1191 20-11-2012 00:00:00 5.27188 C 93.6215 % 4.33 C
1192 21-11-2012 00:00:00 4.38681 C 91.7778 % 3.17 C
1193 22-11-2012 00:00:00 5.51111 C 94.8819 % 4.76 C
1194 23-11-2012 00:00:00 6.88472 C 93.0660 % 5.84 C
1195 24-11-2012 00:00:00 9.16042 C 89.4167 % 7.51 C
1196 25-11-2012 00:00:00 10.6066 C 72.8889 % 5.95 C
1197 26-11-2012 00:00:00 6.01493 C 95.3368 % 5.33 C
1198 27-11-2012 00:00:00 7.67986 C 89.1875 % 6.02 C
1199 28-11-2012 00:00:00 5.5184 C 91.1563 % 4.19 C
1200 29-11-2012 00:00:00 4.01319 C 86.8021 % 2.02 C
Sensor: Nr:Datum:Temp:Feuchte:Taupunkt:
Aussen-T/F 1201 30-11-2012 00:00:00 1.44375 C 93.9375 % 0.58 C
1202 01-12-2012 00:00:00 -0.39861 C 93.9271 % -1.25 C
1203 02-12-2012 00:00:00 2.39375 C 89.5035 % 0.85 C
1204 03-12-2012 00:00:00 2.27222 C 89.5486 % 0.74 C
1205 04-12-2012 00:00:00 3.75312 C 89.4653 % 2.18 C
1206 05-12-2012 00:00:00 2.86667 C 90.6389 % 1.49 C
1207 06-12-2012 00:00:00 0.5625 C 84.7813 % -1.7 C
1208 07-12-2012 00:00:00 -1.00382 C 91.2500 % -2.25 C
1209 08-12-2012 00:00:00 -4.66111 C 93.4826 % -5.55 C
1210 09-12-2012 00:00:00 0.22326 C 90.9479 % -1.08 C
1211 10-12-2012 00:00:00 2.70764 C 86.9965 % 0.77 C
1212 11-12-2012 00:00:00 -0.72396 C 86.9514 % -2.62 C
1213 12-12-2012 00:00:00 -3.40937 C 85.1563 % -5.54 C
1214 13-12-2012 00:00:00 -3.53646 C 88.4896 % -5.16 C
1215 14-12-2012 00:00:00 2.76076 C 92.6389 % 1.69 C
1216 15-12-2012 00:00:00 6.97153 C 92.2500 % 5.8 C
1217 16-12-2012 00:00:00 6.60868 C 91.0278 % 5.25 C
1218 17-12-2012 00:00:00 6.04792 C 93.6910 % 5.11 C
1219 18-12-2012 00:00:00 5.04583 C 93.1146 % 4.03 C
1220 19-12-2012 00:00:00 3.47361 C 96.2708 % 2.94 C
1221 20-12-2012 00:00:00 1.32396 C 93.7708 % 0.43 C
1222 21-12-2012 00:00:00 3.19236 C 97.7708 % 2.87 C
1223 22-12-2012 00:00:00 6.1691 C 95.2361 % 5.47 C
1224 23-12-2012 00:00:00 11.85 C 90.7014 % 10.38 C
1225 24-12-2012 00:00:00 11.08715 C 83.9306 % 8.48 C
Sensor: Nr:Datum:Temp:Feuchte:Taupunkt:
Aussen-T/F 1226 25-12-2012 00:00:00 9.61181 C 81.7431 % 6.65 C
1227 26-12-2012 00:00:00 8.15278 C 84.2465 % 5.66 C
1228 27-12-2012 00:00:00 7.84757 C 87.0868 % 5.84 C
1229 28-12-2012 00:00:00 6.19479 C 93.6806 % 5.25 C
1230 29-12-2012 00:00:00 8.19931 C 92.4514 % 7.05 C
1231 30-12-2012 00:00:00 8.44618 C 76.8021 % 4.62 C
1232 31-12-2012 00:00:00 8.92569 C 76.6319 % 5.05 C
1233 01-01-2013 00:00:00 6.59132 C 85.2465 % 4.3 C
1234 02-01-2013 00:00:00 4.69861 C 86.2326 % 2.6 C
1235 03-01-2013 00:00:00 7.62951 C 90.5069 % 6.18 C
1236 04-01-2013 00:00:00 9.87292 C 91.9063 % 8.62 C
1237 05-01-2013 00:00:00 7.8816 C 90.6528 % 6.45 C
1238 06-01-2013 00:00:00 8.15069 C 89.3438 % 6.51 C
1239 07-01-2013 00:00:00 7.30764 C 88.5938 % 5.55 C
1240 08-01-2013 00:00:00 6.15417 C 86.4549 % 4.07 C
1241 09-01-2013 00:00:00 4.72465 C 87.9271 % 2.9 C
1242 10-01-2013 00:00:00 4.44028 C 90.6840 % 3.05 C
1243 11-01-2013 00:00:00 1.09201 C 80.8958 % -1.81 C
1244 12-01-2013 00:00:00 -2.64514 C 86.8611 % -4.53 C
1245 13-01-2013 00:00:00 -3.28368 C 83.3715 % -5.69 C
1246 14-01-2013 00:00:00 -4.44028 C 89.7431 % -5.87 C
1247 15-01-2013 00:00:00 -2.1941 C 89.2222 % -3.72 C
1248 16-01-2013 00:00:00 -2.65521 C 90.0208 % -4.06 C
1249 17-01-2013 00:00:00 -2.48542 C 88.3472 % -4.14 C
1250 18-01-2013 00:00:00 -1.70729 C 86.0417 % -3.73 C
Sensor: Nr:Datum:Temp:Feuchte:Taupunkt:
Aussen-T/F 1251 19-01-2013 00:00:00 -2.39375 C 81.1181 % -5.18 C
1252 20-01-2013 00:00:00 -3.06146 C 87.3229 % -4.87 C
1253 21-01-2013 00:00:00 -0.75938 C 92.5590 % -1.81 C
1254 22-01-2013 00:00:00 -1.20382 C 91.8194 % -2.36 C
1255 23-01-2013 00:00:00 -1.0566 C 91.6736 % -2.24 C
1256 24-01-2013 00:00:00 -2.40833 C 86.2639 % -4.38 C
1257 25-01-2013 00:00:00 -2.18368 C 84.2292 % -4.48 C
1258 26-01-2013 00:00:00 -1.99549 C 84.4306 % -4.26 C
1259 27-01-2013 00:00:00 2.22882 C 88.1528 % 0.48 C
1260 28-01-2013 00:00:00 3.96389 C 87.7361 % 2.12 C
1261 29-01-2013 00:00:00 9.00868 C 87.2743 % 7.01 C
1262 30-01-2013 00:00:00 11.32361 C 82.5660 % 8.47 C
1263 31-01-2013 00:00:00 7.765 C 75.5864 % 3.73 C
1264 01-02-2013 00:00:00 6.26378 C 91.9921 % 5.06 C
1265 02-02-2013 00:00:00 3.24097 C 87.7743 % 1.41 C
1266 03-02-2013 00:00:00 3.41458 C 84.2292 % 1.01 C
1267 04-02-2013 00:00:00 5.84792 C 89.4167 % 4.24 C
1268 05-02-2013 00:00:00 4.44583 C 78.9896 % 1.13 C
1269 06-02-2013 00:00:00 1.58819 C 91.4306 % 0.35 C
1270 07-02-2013 00:00:00 1.88576 C 90.5625 % 0.51 C
1271 08-02-2013 00:00:00 0.56424 C 91.6042 % -0.64 C
1272 09-02-2013 00:00:00 -0.7941 C 88.5694 % -2.44 C
1273 10-02-2013 00:00:00 -1.98681 C 82.7569 % -4.52 C
1274 11-02-2013 00:00:00 -0.9316 C 70.8750 % -5.54 C
1275 12-02-2013 00:00:00 -0.84618 C 72.2569 % -5.2 C
Sensor: Nr:Datum:Temp:Feuchte:Taupunkt:
Aussen-T/F 1276 13-02-2013 00:00:00 -0.98125 C 73.6458 % -5.08 C
1277 14-02-2013 00:00:00 -2.40382 C 83.6806 % -4.78 C
1278 15-02-2013 00:00:00 0.91806 C 93.3993 % -0.02 C
1279 16-02-2013 00:00:00 2.92847 C 95.7014 % 2.31 C
1280 17-02-2013 00:00:00 2.97465 C 92.8229 % 1.93 C
1281 18-02-2013 00:00:00 0.52847 C 89.7049 % -0.96 C
1282 19-02-2013 00:00:00 0.79306 C 91.9375 % -0.36 C
1283 20-02-2013 00:00:00 0.4316 C 79.5799 % -2.68 C
1284 21-02-2013 00:00:00 -1.21979 C 76.7188 % -4.77 C
1285 22-02-2013 00:00:00 -2.3066 C 72.8819 % -6.5 C
1286 23-02-2013 00:00:00 -2.80139 C 85.8924 % -4.83 C
1287 24-02-2013 00:00:00 -0.43958 C 90.7604 % -1.76 C
1288 25-02-2013 00:00:00 0.88785 C 95.9375 % 0.32 C
1289 26-02-2013 00:00:00 2.31215 C 94.4792 % 1.52 C
1290 27-02-2013 00:00:00 1.69271 C 89.6667 % 0.18 C
1291 28-02-2013 00:00:00 2.41771 C 88.3368 % 0.69 C
1292 01-03-2013 00:00:00 2.75278 C 82.7014 % 0.11 C
1293 02-03-2013 00:00:00 2.60208 C 75.2674 % -1.32 C
1294 03-03-2013 00:00:00 1.90104 C 84.2535 % -0.47 C
1295 04-03-2013 00:00:00 1.8934 C 82.4444 % -0.77 C
1296 05-03-2013 00:00:00 2.56979 C 83.8611 % 0.12 C
1297 06-03-2013 00:00:00 5.45035 C 78.0139 % 1.93 C
1298 07-03-2013 00:00:00 8.96146 C 79.3646 % 5.59 C
1299 08-03-2013 00:00:00 10.92049 C 83.9063 % 8.31 C
1300 09-03-2013 00:00:00 10.42118 C 84.5660 % 7.94 C
Sensor: Nr:Datum:Temp:Feuchte:Taupunkt:
Aussen-T/F 1301 10-03-2013 00:00:00 3.88611 C 90.5799 % 2.49 C
1302 11-03-2013 00:00:00 -0.5191 C 89.0764 % -2.09 C
1303 12-03-2013 00:00:00 -2.72153 C 90.2674 % -4.09 C
1304 13-03-2013 00:00:00 -2.95907 C 81.1566 % -5.73 C
1305 14-03-2013 00:00:00 -1.88944 C 86.0493 % -3.91 C
1306 15-03-2013 00:00:00 -2.50139 C 79.4063 % -5.57 C
1307 16-03-2013 00:00:00 2.40938 C 66.0729 % -3.26 C
1308 17-03-2013 00:00:00 3.22014 C 86.2431 % 1.15 C
1309 18-03-2013 00:00:00 4.14479 C 82.4410 % 1.43 C
1310 19-03-2013 00:00:00 4.10313 C 82.7500 % 1.44 C
1311 20-03-2013 00:00:00 3.59201 C 90.7639 % 2.23 C
1312 21-03-2013 00:00:00 1.33993 C 86.7153 % -0.62 C
1313 22-03-2013 00:00:00 1.7441 C 78.1840 % -1.64 C
1314 23-03-2013 00:00:00 1.46875 C 67.2951 % -3.92 C
1315 24-03-2013 00:00:00 0.48854 C 50.8924 % -8.48 C
1316 25-03-2013 00:00:00 0.18681 C 56.3854 % -7.45 C
1317 26-03-2013 00:00:00 0.3309 C 54.9167 % -7.65 C
1318 27-03-2013 00:00:00 1.19896 C 57.4340 % -6.26 C
1319 28-03-2013 00:00:00 2.07639 C 68.6563 % -3.07 C
1320 29-03-2013 00:00:00 0.53715 C 86.8750 % -1.39 C
1321 30-03-2013 00:00:00 1.50903 C 75.2361 % -2.39 C
1322 31-03-2013 00:00:00 1.17246 C 77.9094 % -2.24 C
1323 01-04-2013 00:00:00 1.44201 C 69.0382 % -3.6 C
1324 02-04-2013 00:00:00 2.12708 C 62.2396 % -4.33 C
1325 03-04-2013 00:00:00 1.88194 C 70.0521 % -2.99 C
Sensor: Nr:Datum:Temp:Feuchte:Taupunkt:
Aussen-T/F 1326 04-04-2013 00:00:00 3.97465 C 65.6701 % -1.85 C
1327 05-04-2013 00:00:00 2.45382 C 75.3299 % -1.46 C
1328 06-04-2013 00:00:00 3.55104 C 83.4028 % 1.01 C
1329 07-04-2013 00:00:00 3.40382 C 71.6181 % -1.23 C
1330 08-04-2013 00:00:00 4.46979 C 71.6076 % -0.2 C
1331 09-04-2013 00:00:00 5.89479 C 88.8681 % 4.2 C
1332 10-04-2013 00:00:00 8.34653 C 86.5139 % 6.23 C
1333 11-04-2013 00:00:00 12.25972 C 76.2674 % 8.21 C
1334 12-04-2013 00:00:00 10.42708 C 83.9722 % 7.84 C
1335 13-04-2013 00:00:00 11.30243 C 70.4826 % 6.14 C
1336 14-04-2013 00:00:00 15.49271 C 69.5903 % 9.96 C
1337 15-04-2013 00:00:00 15.52118 C 73.4931 % 10.81 C
1338 16-04-2013 00:00:00 16.01215 C 73.3854 % 11.26 C
1339 17-04-2013 00:00:00 17.14167 C 64.9028 % 10.49 C
1340 18-04-2013 00:00:00 15.57153 C 62.1528 % 8.36 C
1341 19-04-2013 00:00:00 11.46389 C 56.8333 % 3.21 C
1342 20-04-2013 00:00:00 10.16944 C 61.6736 % 3.15 C
1343 21-04-2013 00:00:00 10.71389 C 59.7014 % 3.21 C
1344 22-04-2013 00:00:00 12.26562 C 60.0069 % 4.74 C
1345 23-04-2013 00:00:00 12.48924 C 62.8681 % 5.62 C
1346 24-04-2013 00:00:00 14.60278 C 69.3472 % 9.06 C
1347 25-04-2013 00:00:00 17.28958 C 64.4965 % 10.54 C
1348 26-04-2013 00:00:00 12.59896 C 84.6528 % 10.09 C
1349 27-04-2013 00:00:00 6.70972 C 88.6111 % 4.97 C
1350 28-04-2013 00:00:00 7.57118 C 83.3438 % 4.93 C
Sensor: Nr:Datum:Temp:Feuchte:Taupunkt:
Aussen-T/F 1351 29-04-2013 00:00:00 11.20139 C 67.0556 % 5.32 C
1352 30-04-2013 00:00:00 9.40104 C 78.5139 % 5.86 C
1353 01-05-2013 00:00:00 12.25 C 80.0972 % 8.92 C
1354 02-05-2013 00:00:00 15.26458 C 71.7535 % 10.2 C
1355 03-05-2013 00:00:00 14.28056 C 76.8472 % 10.28 C
1356 04-05-2013 00:00:00 15.30521 C 68.4132 % 9.53 C
1357 05-05-2013 00:00:00 14.71458 C 67.0556 % 8.67 C
1358 06-05-2013 00:00:00 15.4691 C 70.1458 % 10.06 C
1359 07-05-2013 00:00:00 14.47708 C 86.2465 % 12.21 C
1360 08-05-2013 00:00:00 15.69062 C 80.7188 % 12.39 C
1361 09-05-2013 00:00:00 16.1566 C 79.2674 % 12.57 C
1362 10-05-2013 00:00:00 13.28785 C 70.3924 % 8.02 C
1363 11-05-2013 00:00:00 12.72431 C 79.9549 % 9.36 C
1364 12-05-2013 00:00:00 9.44583 C 87.2049 % 7.43 C
1365 13-05-2013 00:00:00 11.19688 C 87.3056 % 9.17 C
1366 14-05-2013 00:00:00 12.63125 C 81.3576 % 9.53 C
1367 15-05-2013 00:00:00 13.05694 C 84.4688 % 10.5 C
1368 16-05-2013 00:00:00 13.25521 C 93.0174 % 12.15 C
1369 17-05-2013 00:00:00 10.33125 C 94.0278 % 9.41 C
1370 18-05-2013 00:00:00 13.12118 C 83.2813 % 10.35 C
1371 19-05-2013 00:00:00 13.29792 C 84.1910 % 10.69 C
1372 20-05-2013 00:00:00 10.92014 C 91.6771 % 9.62 C
1373 21-05-2013 00:00:00 12.35104 C 85.9826 % 10.08 C
1374 22-05-2013 00:00:00 9.34444 C 87.3438 % 7.35 C
1375 23-05-2013 00:00:00 7.90764 C 85.7535 % 5.67 C
Sensor: Nr:Datum:Temp:Feuchte:Taupunkt:
Aussen-T/F 1376 24-05-2013 00:00:00 7.60521 C 78.8576 % 4.18 C
1377 25-05-2013 00:00:00 8.39687 C 79.6493 % 5.09 C
1378 26-05-2013 00:00:00 8.03611 C 93.6493 % 7.08 C
1379 27-05-2013 00:00:00 12.39201 C 76.8368 % 8.45 C
1380 28-05-2013 00:00:00 13.87465 C 75.0903 % 9.54 C
1381 29-05-2013 00:00:00 10.21285 C 92.6875 % 9.08 C
1382 30-05-2013 00:00:00 11.70208 C 80.4896 % 8.46 C
1383 31-05-2013 00:00:00 13.19792 C 90.3090 % 11.65 C
1384 01-06-2013 00:00:00 12.09549 C 87.9410 % 10.16 C
1385 02-06-2013 00:00:00 13.08125 C 66.3472 % 6.96 C
1386 03-06-2013 00:00:00 12.7375 C 64.3750 % 6.19 C
1387 04-06-2013 00:00:00 13.85833 C 72.3507 % 8.97 C
1388 05-06-2013 00:00:00 16.28889 C 78.3125 % 12.51 C
1389 06-06-2013 00:00:00 18.00868 C 68.3264 % 12.09 C
1390 07-06-2013 00:00:00 18.14826 C 71.4236 % 12.9 C
1391 08-06-2013 00:00:00 18.53125 C 79.0556 % 14.83 C
1392 09-06-2013 00:00:00 15.18819 C 89.5868 % 13.49 C
1393 10-06-2013 00:00:00 12.77396 C 94.5868 % 11.93 C
1394 11-06-2013 00:00:00 15.40451 C 84.7708 % 12.86 C
1395 12-06-2013 00:00:00 17.48576 C 83.4236 % 14.65 C
1396 13-06-2013 00:00:00 18.45313 C 85.0625 % 15.9 C
1397 14-06-2013 00:00:00 14.47917 C 78.2500 % 10.74 C
1398 15-06-2013 00:00:00 15.22674 C 77.9653 % 11.41 C
1399 16-06-2013 00:00:00 16.60104 C 70.9306 % 11.31 C
1400 17-06-2013 00:00:00 20.99236 C 73.9583 % 16.17 C
Sensor: Nr:Datum:Temp:Feuchte:Taupunkt:
Aussen-T/F 1401 18-06-2013 00:00:00 23.88576 C 78.5104 % 19.92 C
1402 19-06-2013 00:00:00 24.9691 C 80.3924 % 21.36 C
1403 20-06-2013 00:00:00 21.63299 C 83.6493 % 18.74 C
1404 21-06-2013 00:00:00 17.72778 C 79.6563 % 14.17 C
1405 22-06-2013 00:00:00 18.08576 C 74.9688 % 13.58 C
1406 23-06-2013 00:00:00 16.03403 C 77.5938 % 12.12 C
1407 24-06-2013 00:00:00 14.4184 C 80.7326 % 11.15 C
1408 25-06-2013 00:00:00 13.24861 C 81.2049 % 10.1 C
1409 26-06-2013 00:00:00 12.21597 C 78.8819 % 8.66 C
1410 27-06-2013 00:00:00 12.77257 C 85.6111 % 10.42 C
1411 28-06-2013 00:00:00 12.51979 C 89.5764 % 10.85 C
1412 29-06-2013 00:00:00 15.31319 C 83.5000 % 12.54 C
1413 30-06-2013 00:00:00 14.36458 C 77.9931 % 10.58 C
1414 01-07-2013 00:00:00 18.46319 C 74.8715 % 13.93 C
1415 02-07-2013 00:00:00 18.88542 C 76.4132 % 14.65 C
1416 03-07-2013 00:00:00 17.18993 C 93.0868 % 16.06 C
1417 04-07-2013 00:00:00 18.03542 C 87.4410 % 15.92 C
1418 05-07-2013 00:00:00 19.17361 C 80.8785 % 15.81 C
1419 06-07-2013 00:00:00 19.30833 C 81.3438 % 16.03 C
1420 07-07-2013 00:00:00 20.55243 C 74.5069 % 15.86 C
1421 08-07-2013 00:00:00 20.53924 C 71.9444 % 15.31 C
1422 09-07-2013 00:00:00 20.80694 C 73.6597 % 15.93 C
1423 10-07-2013 00:00:00 20.12292 C 72.3368 % 14.99 C
1424 11-07-2013 00:00:00 17.10417 C 69.4097 % 11.47 C
1425 12-07-2013 00:00:00 16.90868 C 73.6806 % 12.18 C
Sensor: Nr:Datum:Temp:Feuchte:Taupunkt:
Aussen-T/F 1426 13-07-2013 00:00:00 17.26424 C 74.3160 % 12.66 C
1427 14-07-2013 00:00:00 18.30139 C 74.2847 % 13.65 C
1428 15-07-2013 00:00:00 18.85486 C 75.3333 % 14.4 C
1429 16-07-2013 00:00:00 20.18438 C 72.0590 % 14.99 C
1430 17-07-2013 00:00:00 20.29896 C 74.5729 % 15.63 C
1431 18-07-2013 00:00:00 21.84757 C 69.7014 % 16.06 C
1432 19-07-2013 00:00:00 22.12674 C 67.1042 % 15.74 C
1433 20-07-2013 00:00:00 21.31076 C 69.5417 % 15.52 C
1434 21-07-2013 00:00:00 22.30521 C 69.0000 % 16.34 C
1435 22-07-2013 00:00:00 22.41562 C 70.3958 % 16.76 C
1436 23-07-2013 00:00:00 21.37396 C 86.5069 % 19.03 C
1437 24-07-2013 00:00:00 21.35972 C 80.1076 % 17.79 C
1438 25-07-2013 00:00:00 20.88542 C 86.3472 % 18.52 C
1439 26-07-2013 00:00:00 21.25729 C 95.1007 % 20.44 C
1440 27-07-2013 00:00:00 23.54236 C 84.8646 % 20.85 C
1441 28-07-2013 00:00:00 21.69965 C 82.3889 % 18.57 C
1442 29-07-2013 00:00:00 19.41007 C 88.3993 % 17.44 C
1443 30-07-2013 00:00:00 18.99028 C 79.0139 % 15.27 C
1444 31-07-2013 00:00:00 20.83715 C 75.4653 % 16.34 C
1445 01-08-2013 00:00:00 21.89653 C 75.0764 % 17.28 C
1446 02-08-2013 00:00:00 23.37049 C 72.4132 % 18.13 C
1447 03-08-2013 00:00:00 21.1934 C 85.6146 % 18.69 C
1448 04-08-2013 00:00:00 19.79549 C 78.0382 % 15.86 C
1449 05-08-2013 00:00:00 20.42639 C 78.9618 % 16.65 C
1450 06-08-2013 00:00:00 19.98646 C 87.9132 % 17.92 C
Sensor: Nr:Datum:Temp:Feuchte:Taupunkt:
Aussen-T/F 1451 07-08-2013 00:00:00 18.91562 C 91.5833 % 17.51 C
1452 08-08-2013 00:00:00 16.92118 C 86.3229 % 14.62 C
1453 09-08-2013 00:00:00 16.41597 C 86.1181 % 14.09 C
1454 10-08-2013 00:00:00 18.10764 C 74.2986 % 13.46 C
1455 11-08-2013 00:00:00 16.80278 C 69.1771 % 11.13 C
1456 12-08-2013 00:00:00 15.88229 C 83.6007 % 13.11 C
1457 13-08-2013 00:00:00 15.61319 C 81.7326 % 12.5 C
1458 14-08-2013 00:00:00 14.4559 C 81.5660 % 11.34 C
1459 15-08-2013 00:00:00 16.30035 C 77.9028 % 12.44 C
1460 16-08-2013 00:00:00 17.96319 C 75.3750 % 13.55 C
1461 17-08-2013 00:00:00 20.47965 C 70.5158 % 14.94 C
1462 18-08-2013 00:00:00 19.29614 C 82.4596 % 16.23 C
1463 19-08-2013 00:00:00 17.75764 C 80.2465 % 14.31 C
1464 20-08-2013 00:00:00 14.96458 C 79.6111 % 11.47 C
1465 21-08-2013 00:00:00 15.16285 C 81.7743 % 12.07 C
1466 22-08-2013 00:00:00 16.33576 C 83.6111 % 13.56 C
1467 23-08-2013 00:00:00 18.61667 C 76.7708 % 14.46 C
1468 24-08-2013 00:00:00 16.10208 C 89.7396 % 14.42 C
1469 25-08-2013 00:00:00 16.06806 C 95.2708 % 15.31 C
1470 26-08-2013 00:00:00 15.16806 C 96.5451 % 14.62 C
1471 27-08-2013 00:00:00 15.88472 C 89.9792 % 14.24 C
1472 28-08-2013 00:00:00 15.65312 C 87.5035 % 13.59 C
1473 29-08-2013 00:00:00 14.74062 C 90.2153 % 13.15 C
1474 30-08-2013 00:00:00 15.73924 C 87.8472 % 13.73 C
1475 31-08-2013 00:00:00 16.33229 C 86.2986 % 14.04 C
Sensor: Nr:Datum:Temp:Feuchte:Taupunkt:
Aussen-T/F 1476 01-09-2013 00:00:00 14.50938 C 73.5035 % 9.83 C
1477 02-09-2013 00:00:00 17.48924 C 69.9375 % 11.95 C
1478 03-09-2013 00:00:00 18.08299 C 80.6319 % 14.7 C
1479 04-09-2013 00:00:00 17.74583 C 85.1701 % 15.22 C
1480 05-09-2013 00:00:00 18.47349 C 84.5181 % 15.82 C
1481 06-09-2013 00:00:00 22.68615 C 74.2769 % 17.87 C
1482 07-09-2013 00:00:00 18.36354 C 91.5208 % 16.96 C
1483 08-09-2013 00:00:00 14.78542 C 93.9097 % 13.81 C
1484 09-09-2013 00:00:00 14.16944 C 86.9965 % 12.04 C
1485 10-09-2013 00:00:00 13.35073 C 82.4891 % 10.43 C
1486 11-09-2013 00:00:00 13.00912 C 87.8066 % 11.04 C
1487 12-09-2013 00:00:00 13.53472 C 92.7535 % 12.39 C
1488 13-09-2013 00:00:00 14.67363 C 88.3553 % 12.77 C
1489 14-09-2013 00:00:00 15.8191 C 93.1007 % 14.71 C
1490 15-09-2013 00:00:00 14.41667 C 87.2500 % 12.33 C
1491 16-09-2013 00:00:00 13.23333 C 81.3229 % 10.11 C
1492 17-09-2013 00:00:00 10.58958 C 82.5833 % 7.75 C
1493 18-09-2013 00:00:00 12.57951 C 92.8750 % 11.46 C
1494 19-09-2013 00:00:00 11.89444 C 86.6076 % 9.73 C
1495 20-09-2013 00:00:00 13.91806 C 85.7778 % 11.58 C
1496 21-09-2013 00:00:00 12.20868 C 91.0000 % 10.78 C
1497 22-09-2013 00:00:00 13.3788 C 90.7668 % 11.9 C
1498 23-09-2013 00:00:00 15.46493 C 89.1076 % 13.68 C
1499 24-09-2013 00:00:00 12.34792 C 94.6979 % 11.52 C
1500 25-09-2013 00:00:00 14.08646 C 94.5347 % 13.22 C
Sensor: Nr:Datum:Temp:Feuchte:Taupunkt:
Aussen-T/F 1501 26-09-2013 00:00:00 14.58924 C 91.1389 % 13.16 C
1502 27-09-2013 00:00:00 11.25312 C 89.0660 % 9.52 C
1503 28-09-2013 00:00:00 10.575 C 88.4286 % 8.74 C
1504 29-09-2013 00:00:00 11.89028 C 85.1667 % 9.48 C
1505 30-09-2013 00:00:00 9.80833 C 87.1910 % 7.78 C
1506 01-10-2013 00:00:00 11.38264 C 80.5903 % 8.17 C
1507 02-10-2013 00:00:00 9.01493 C 82.1111 % 6.13 C
1508 03-10-2013 00:00:00 8.84479 C 80.9549 % 5.76 C
1509 04-10-2013 00:00:00 11.33993 C 91.6215 % 10.03 C
1510 05-10-2013 00:00:00 12.69583 C 97.5486 % 12.32 C
1511 06-10-2013 00:00:00 13.60313 C 92.6910 % 12.44 C
1512 07-10-2013 00:00:00 13.21667 C 94.6806 % 12.38 C
1513 08-10-2013 00:00:00 13.44791 C 95.3505 % 12.72 C
1514 09-10-2013 00:00:00 13.86667 C 91.5938 % 12.52 C
1515 10-10-2013 00:00:00 8.4625 C 94.6285 % 7.65 C
1516 11-10-2013 00:00:00 6.86042 C 97.1285 % 6.44 C
1517 12-10-2013 00:00:00 6.31215 C 95.1910 % 5.6 C
1518 13-10-2013 00:00:00 7.69167 C 90.0208 % 6.16 C
1519 14-10-2013 00:00:00 9.89091 C 92.2182 % 8.69 C
1520 15-10-2013 00:00:00 10.43275 C 94.2113 % 9.54 C
1521 16-10-2013 00:00:00 10.04523 C 95.8799 % 9.42 C
1522 17-10-2013 00:00:00 12.70972 C 88.6771 % 10.89 C
1523 18-10-2013 00:00:00 11.80868 C 95.7083 % 11.15 C
1524 19-10-2013 00:00:00 11.72702 C 95.4877 % 11.03 C
1525 20-10-2013 00:00:00 15.28507 C 93.8021 % 14.29 C
Sensor: Nr:Datum:Temp:Feuchte:Taupunkt:
Aussen-T/F 1526 21-10-2013 00:00:00 15.075 C 89.9861 % 13.45 C
1527 22-10-2013 00:00:00 15.7614 C 91.7404 % 14.42 C
1528 23-10-2013 00:00:00 15.81476 C 92.6790 % 14.63 C
1529 24-10-2013 00:00:00 13.67431 C 95.5069 % 12.97 C
1530 25-10-2013 00:00:00 13.01701 C 96.8958 % 12.54 C
1531 26-10-2013 00:00:00 16.41144 C 95.1808 % 15.64 C
1532 27-10-2013 00:00:00 14.94896 C 83.9028 % 12.25 C
1533 28-10-2013 00:00:00 15.40962 C 78.1385 % 11.62 C
1534 29-10-2013 00:00:00 11.12569 C 77.4901 % 7.34 C
1535 30-10-2013 00:00:00 7.81825 C 86.6702 % 5.74 C
1536 31-10-2013 00:00:00 5.27708 C 94.3854 % 4.45 C
1537 01-11-2013 00:00:00 9.4316 C 89.5208 % 7.8 C
1538 02-11-2013 00:00:00 12.79889 C 90.4354 % 11.27 C
1539 03-11-2013 00:00:00 9.93611 C 83.6701 % 7.31 C
1540 04-11-2013 00:00:00 9.80526 C 87.0912 % 7.76 C
1541 05-11-2013 00:00:00 6.72153 C 87.5556 % 4.81 C
1542 06-11-2013 00:00:00 10.70215 C 88.7348 % 8.92 C
1543 07-11-2013 00:00:00 15.04132 C 84.5243 % 12.46 C
1544 08-11-2013 00:00:00 11.92093 C 93.0372 % 10.83 C
1545 09-11-2013 00:00:00 9.48785 C 80.9931 % 6.39 C
1546 10-11-2013 00:00:00 6.68715 C 90.9653 % 5.32 C
1547 11-11-2013 00:00:00 4.00764 C 96.3542 % 3.48 C
1548 12-11-2013 00:00:00 4.41146 C 93.7951 % 3.5 C
1549 13-11-2013 00:00:00 6.28491 C 93.5579 % 5.32 C
1550 14-11-2013 00:00:00 3.2816 C 95.0833 % 2.57 C
Sensor: Nr:Datum:Temp:Feuchte:Taupunkt:
Aussen-T/F 1551 15-11-2013 00:00:00 4.99201 C 90.5035 % 3.57 C
1552 16-11-2013 00:00:00 3.05 C 91.8507 % 1.86 C
1553 17-11-2013 00:00:00 3.2184 C 94.6285 % 2.44 C
1554 18-11-2013 00:00:00 5.38287 C 94.0916 % 4.51 C
1555 19-11-2013 00:00:00 6.22 C 91.5647 % 4.95 C
1556 20-11-2013 00:00:00 3.96643 C 91.7483 % 2.75 C
1557 21-11-2013 00:00:00 4.05603 C 89.4310 % 2.48 C
1558 22-11-2013 00:00:00 4.42 C 86.5545 % 2.38 C
1559 23-11-2013 00:00:00 7.03092 C 87.0000 % 5.02 C
1560 24-11-2013 00:00:00 5.71435 C 88.4739 % 3.96 C
1561 25-11-2013 00:00:00 2.65439 C 93.3216 % 1.69 C
1562 26-11-2013 00:00:00 0.53125 C 94.5590 % -0.24 C
1563 27-11-2013 00:00:00 0.63854 C 92.5035 % -0.43 C
1564 28-11-2013 00:00:00 3.45709 C 94.3022 % 2.63 C
1565 29-11-2013 00:00:00 5.6434 C 91.5833 % 4.38 C
1566 30-11-2013 00:00:00 4.32604 C 93.7951 % 3.42 C
1567 01-12-2013 00:00:00 5.01254 C 94.7178 % 4.24 C
1568 02-12-2013 00:00:00 4.76458 C 93.0486 % 3.74 C
1569 03-12-2013 00:00:00 -0.45729 C 97.1806 % -0.85 C
1570 04-12-2013 00:00:00 3.27917 C 91.8924 % 2.09 C
1571 05-12-2013 00:00:00 3.93475 C 87.9291 % 2.12 C
1572 06-12-2013 00:00:00 3.76181 C 74.9583 % -0.26 C
1573 07-12-2013 00:00:00 4.38715 C 85.8194 % 2.23 C
1574 08-12-2013 00:00:00 6.92188 C 87.3785 % 4.97 C
1575 09-12-2013 00:00:00 6.42222 C 84.1806 % 3.95 C
Sensor: Nr:Datum:Temp:Feuchte:Taupunkt:
Aussen-T/F 1576 10-12-2013 00:00:00 3.24896 C 95.9236 % 2.66 C
1577 11-12-2013 00:00:00 3.72465 C 96.5903 % 3.23 C
1578 12-12-2013 00:00:00 4.08993 C 92.2118 % 2.94 C
1579 13-12-2013 00:00:00 2.65694 C 90.5313 % 1.27 C
1580 14-12-2013 00:00:00 3.58986 C 92.6923 % 2.52 C
1581 15-12-2013 00:00:00 4.99688 C 85.9340 % 2.84 C
1582 16-12-2013 00:00:00 1.49676 C 94.6511 % 0.73 C
1583 17-12-2013 00:00:00 1.25451 C 95.3924 % 0.6 C
1584 18-12-2013 00:00:00 4.19965 C 94.2153 % 3.35 C
1585 19-12-2013 00:00:00 8.13715 C 88.2813 % 6.32 C
1586 20-12-2013 00:00:00 4.38403 C 92.2708 % 3.24 C
1587 21-12-2013 00:00:00 4.81354 C 81.8229 % 1.98 C
1588 22-12-2013 00:00:00 8.81493 C 82.7222 % 6.04 C
1589 23-12-2013 00:00:00 8.42341 C 85.6230 % 6.16 C
1590 24-12-2013 00:00:00 11.57579 C 73.6140 % 7.03 C
1591 25-12-2013 00:00:00 8.41944 C 92.4444 % 7.27 C
1592 26-12-2013 00:00:00 6.06579 C 94.8195 % 5.3 C
1593 27-12-2013 00:00:00 6.6549 C 85.1608 % 4.34 C
1594 28-12-2013 00:00:00 9.14444 C 90.1181 % 7.61 C
1595 29-12-2013 00:00:00 4.76463 C 93.9695 % 3.88 C
1596 30-12-2013 00:00:00 4.17107 C 89.7934 % 2.65 C
1597 31-12-2013 00:00:00 2.91045 C 89.5522 % 1.37 C
1598 01-01-2014 00:00:00 6.46912 C 86.4737 % 4.38 C
1599 02-01-2014 00:00:00 8.31947 C 88.5649 % 6.54 C
1600 03-01-2014 00:00:00 8.74861 C 86.5347 % 6.63 C
Sensor: Nr:Datum:Temp:Feuchte:Taupunkt:
Aussen-T/F 1601 04-01-2014 00:00:00 7.47049 C 88.5833 % 5.71 C
1602 05-01-2014 00:00:00 6.13111 C 91.4622 % 4.85 C
1603 06-01-2014 00:00:00 8.33819 C 89.1736 % 6.66 C
1604 07-01-2014 00:00:00 10.72882 C 85.7708 % 8.45 C
1605 08-01-2014 00:00:00 10.3965 C 86.9027 % 8.31 C
1606 09-01-2014 00:00:00 9.27876 C 85.9961 % 7.06 C
1607 10-01-2014 00:00:00 5.59896 C 86.9757 % 3.61 C
1608 11-01-2014 00:00:00 3.80382 C 93.2049 % 2.81 C
1609 12-01-2014 00:00:00 0.34545 C 97.0618 % -0.06 C
1610 13-01-2014 00:00:00 3.73194 C 95.9965 % 3.15 C
1611 14-01-2014 00:00:00 5.06036 C 94.4536 % 4.25 C
1612 15-01-2014 00:00:00 4.1934 C 91.9444 % 3 C
1613 16-01-2014 00:00:00 6.5375 C 93.3160 % 5.54 C
1614 17-01-2014 00:00:00 6.75 C 92.8021 % 5.67 C
1615 18-01-2014 00:00:00 4.5321 C 90.4686 % 3.11 C
1616 19-01-2014 00:00:00 4.621 C 92.0569 % 3.44 C
1617 20-01-2014 00:00:00 4.32836 C 94.6567 % 3.55 C
1618 21-01-2014 00:00:00 3.49792 C 93.6632 % 2.58 C
1619 22-01-2014 00:00:00 3.18571 C 95.3022 % 2.51 C
1620 23-01-2014 00:00:00 3.72927 C 92.3049 % 2.6 C
1621 24-01-2014 00:00:00 3.90268 C 93.5670 % 2.96 C
1622 25-01-2014 00:00:00 2.8165 C 94.8000 % 2.07 C
1623 26-01-2014 00:00:00 5.11851 C 83.3630 % 2.54 C
1624 27-01-2014 00:00:00 4.4199 C 87.2094 % 2.48 C
1625 28-01-2014 00:00:00 2.36869 C 88.8889 % 0.73 C
Sensor: Nr:Datum:Temp:Feuchte:Taupunkt:
Aussen-T/F 1626 29-01-2014 00:00:00 1.54036 C 85.8253 % -0.57 C
1627 30-01-2014 00:00:00 1.98611 C 84.2049 % -0.39 C
1628 31-01-2014 00:00:00 1.03819 C 91.0799 % -0.25 C
1629 01-02-2014 00:00:00 4.63819 C 89.8646 % 3.12 C
1630 02-02-2014 00:00:00 4.14306 C 90.0729 % 2.66 C
1631 03-02-2014 00:00:00 1.00938 C 95.5486 % 0.38 C
1632 04-02-2014 00:00:00 4.28785 C 89.7083 % 2.75 C
1633 05-02-2014 00:00:00 4.74236 C 89.7049 % 3.2 C
1634 06-02-2014 00:00:00 8.42431 C 76.6181 % 4.56 C
1635 07-02-2014 00:00:00 8.79132 C 78.4410 % 5.25 C
1636 08-02-2014 00:00:00 6.5309 C 83.7222 % 3.98 C
1637 09-02-2014 00:00:00 5.34375 C 80.9306 % 2.34 C
1638 10-02-2014 00:00:00 3.38819 C 87.2500 % 1.48 C
1639 11-02-2014 00:00:00 5.41354 C 82.3819 % 2.66 C
1640 12-02-2014 00:00:00 5.44028 C 81.1319 % 2.47 C
1641 13-02-2014 00:00:00 5.71771 C 88.4479 % 3.96 C
1642 14-02-2014 00:00:00 5.64722 C 85.6979 % 3.44 C
1643 15-02-2014 00:00:00 9.70669 C 79.3415 % 6.31 C
1644 16-02-2014 00:00:00 7.36493 C 80.5694 % 4.25 C
1645 17-02-2014 00:00:00 3.59861 C 91.7118 % 2.38 C
1646 18-02-2014 00:00:00 3.38715 C 94.0590 % 2.52 C
1647 19-02-2014 00:00:00 7.825 C 84.9722 % 5.46 C
1648 20-02-2014 00:00:00 8.68958 C 82.6215 % 5.9 C
1649 21-02-2014 00:00:00 7.64062 C 84.5451 % 5.21 C
1650 22-02-2014 00:00:00 4.99861 C 87.1563 % 3.05 C
Sensor: Nr:Datum:Temp:Feuchte:Taupunkt:
Aussen-T/F 1651 23-02-2014 00:00:00 5.94204 C 83.6694 % 3.39 C
1652 24-02-2014 00:00:00 5.86389 C 80.9444 % 2.85 C
1653 25-02-2014 00:00:00 6.68681 C 82.1910 % 3.87 C
1654 26-02-2014 00:00:00 8.58182 C 81.5382 % 5.61 C
1655 27-02-2014 00:00:00 5.86275 C 84.1961 % 3.41 C
1656 28-02-2014 00:00:00 6.2146 C 87.8248 % 4.35 C
1657 01-03-2014 00:00:00 5.44375 C 88.4410 % 3.69 C
1658 02-03-2014 00:00:00 3.55069 C 87.5208 % 1.68 C
1659 03-03-2014 00:00:00 5.27743 C 86.6458 % 3.24 C
1660 04-03-2014 00:00:00 4.21701 C 86.7118 % 2.2 C
1661 05-03-2014 00:00:00 4.68235 C 86.5059 % 2.63 C
1662 06-03-2014 00:00:00 3.87951 C 89.4306 % 2.3 C
1663 07-03-2014 00:00:00 6.23037 C 80.7383 % 3.17 C
1664 08-03-2014 00:00:00 7.3847 C 80.0427 % 4.18 C
1665 09-03-2014 00:00:00 7.27263 C 76.4772 % 3.42 C
1666 10-03-2014 00:00:00 7.44444 C 75.5035 % 3.41 C
1667 11-03-2014 00:00:00 8.4184 C 78.6424 % 4.93 C
1668 12-03-2014 00:00:00 9.07812 C 74.1354 % 4.72 C
1669 13-03-2014 00:00:00 8.16007 C 73.3681 % 3.69 C
1670 14-03-2014 00:00:00 7.91944 C 76.8993 % 4.12 C
1671 15-03-2014 00:00:00 8.97326 C 77.3021 % 5.22 C
1672 16-03-2014 00:00:00 11.50486 C 77.2500 % 7.67 C
1673 17-03-2014 00:00:00 10.27882 C 81.5486 % 7.27 C
1674 18-03-2014 00:00:00 9.4066 C 83.2882 % 6.72 C
1675 19-03-2014 00:00:00 12.2875 C 70.5521 % 7.1 C
Sensor: Nr:Datum:Temp:Feuchte:Taupunkt:
Aussen-T/F 1676 20-03-2014 00:00:00 12.49333 C 67.2772 % 6.6 C
1677 21-03-2014 00:00:00 13.1375 C 66.5069 % 7.05 C
1678 22-03-2014 00:00:00 8.65208 C 83.0799 % 5.95 C
1679 23-03-2014 00:00:00 6.03507 C 81.4861 % 3.11 C
1680 24-03-2014 00:00:00 5.42632 C 80.7404 % 2.39 C
1681 25-03-2014 00:00:00 4.1625 C 82.4271 % 1.44 C
1682 26-03-2014 00:00:00 4.56076 C 78.8125 % 1.21 C
1683 27-03-2014 00:00:00 8.14604 C 73.6475 % 3.73 C
1684 28-03-2014 00:00:00 10.60972 C 66.4167 % 4.62 C
1685 29-03-2014 00:00:00 10.34963 C 70.5809 % 5.24 C
1686 30-03-2014 00:00:00 9.15619 C 76.1429 % 5.18 C
1687 31-03-2014 00:00:00 12.96562 C 65.8924 % 6.75 C
1688 01-04-2014 00:00:00 13.77519 C 67.7366 % 7.92 C
1689 02-04-2014 00:00:00 13.90458 C 68.9754 % 8.31 C
1690 03-04-2014 00:00:00 12.54324 C 77.5811 % 8.74 C
1691 04-04-2014 00:00:00 14.95971 C 74.9173 % 10.55 C
1692 05-04-2014 00:00:00 13.00531 C 86.2612 % 10.77 C
1693 06-04-2014 00:00:00 11.67782 C 83.0879 % 8.91 C
1694 07-04-2014 00:00:00 15.95041 C 75.4713 % 11.62 C
1695 08-04-2014 00:00:00 12.18521 C 67.1585 % 6.28 C
1696 09-04-2014 00:00:00 9.27426 C 75.9154 % 5.25 C
1697 10-04-2014 00:00:00 10.31543 C 77.0864 % 6.48 C
1698 11-04-2014 00:00:00 14.56849 C 72.5000 % 9.69 C
1699 12-04-2014 00:00:00 12.65368 C 70.8982 % 7.52 C
1700 13-04-2014 00:00:00 11.60669 C 71.0599 % 6.55 C
Sensor: Nr:Datum:Temp:Feuchte:Taupunkt:
Aussen-T/F 1701 14-04-2014 00:00:00 9.7593 C 71.2491 % 4.81 C
1702 15-04-2014 00:00:00 7.10171 C 73.7991 % 2.75 C
1703 16-04-2014 00:00:00 12.97192 C 49.4521 % 2.65 C
1704 17-04-2014 00:00:00 9.85313 C 63.3021 % 3.22 C
1705 18-04-2014 00:00:00 10.72049 C 64.8750 % 4.39 C
1706 19-04-2014 00:00:00 10.82049 C 71.8993 % 5.96 C
1707 20-04-2014 00:00:00 14.91825 C 70.5509 % 9.62 C
1708 21-04-2014 00:00:00 12.49479 C 77.9896 % 8.77 C
1709 22-04-2014 00:00:00 12.82847 C 85.6076 % 10.48 C
1710 23-04-2014 00:00:00 13.43958 C 81.1771 % 10.28 C
1711 24-04-2014 00:00:00 15.42535 C 79.0035 % 11.8 C
1712 25-04-2014 00:00:00 16.71562 C 74.1319 % 12.09 C
1713 26-04-2014 00:00:00 15.2 C 74.7604 % 10.75 C
1714 27-04-2014 00:00:00 13.07674 C 81.7986 % 10.04 C
1715 28-04-2014 00:00:00 12.80243 C 79.8715 % 9.42 C
1716 29-04-2014 00:00:00 13.43403 C 90.3056 % 11.88 C
1717 30-04-2014 00:00:00 14.53507 C 84.7500 % 12 C
1718 01-05-2014 00:00:00 14.73611 C 81.3611 % 11.58 C
1719 02-05-2014 00:00:00 11.71319 C 86.6736 % 9.57 C
1720 03-05-2014 00:00:00 10.92708 C 61.0069 % 3.71 C
1721 04-05-2014 00:00:00 9.61042 C 68.0590 % 4.02 C
1722 05-05-2014 00:00:00 12.60069 C 67.5521 % 6.76 C
1723 06-05-2014 00:00:00 13.72083 C 74.2778 % 9.23 C
1724 07-05-2014 00:00:00 13.05764 C 84.9931 % 10.6 C
1725 08-05-2014 00:00:00 12.32847 C 84.6146 % 9.81 C
Sensor: Nr:Datum:Temp:Feuchte:Taupunkt:
Aussen-T/F 1726 09-05-2014 00:00:00 15.33403 C 71.0833 % 10.13 C
1727 10-05-2014 00:00:00 12.40903 C 81.6528 % 9.36 C
1728 11-05-2014 00:00:00 11.45764 C 80.1667 % 8.16 C
1729 12-05-2014 00:00:00 11.1941 C 74.9167 % 6.92 C
1730 13-05-2014 00:00:00 10.30729 C 85.3368 % 7.96 C
1731 14-05-2014 00:00:00 10.63542 C 76.9514 % 6.77 C
1732 15-05-2014 00:00:00 10.00382 C 80.4757 % 6.8 C
1733 16-05-2014 00:00:00 13.25347 C 73.1250 % 8.55 C
1734 17-05-2014 00:00:00 14.22292 C 71.7500 % 9.2 C
1735 18-05-2014 00:00:00 15.4809 C 74.3021 % 10.93 C
1736 19-05-2014 00:00:00 17.57188 C 70.6944 % 12.19 C
1737 20-05-2014 00:00:00 19.46562 C 67.3681 % 13.26 C
1738 21-05-2014 00:00:00 20.29792 C 68.1181 % 14.23 C
1739 22-05-2014 00:00:00 20.21806 C 65.7465 % 13.61 C
1740 23-05-2014 00:00:00 15.52639 C 89.6667 % 13.84 C
1741 24-05-2014 00:00:00 14.72993 C 81.1514 % 11.53 C
1742 25-05-2014 00:00:00 15.25071 C 74.9149 % 10.83 C
1743 26-05-2014 00:00:00 16.8625 C 80.3056 % 13.45 C
1744 27-05-2014 00:00:00 15.19431 C 94.7346 % 14.36 C
1745 28-05-2014 00:00:00 14.58118 C 88.4000 % 12.69 C
1746 29-05-2014 00:00:00 13.44653 C 87.1042 % 11.35 C
1747 30-05-2014 00:00:00 13.2316 C 70.4167 % 7.97 C
1748 31-05-2014 00:00:00 13.40382 C 74.2639 % 8.92 C
1749 01-06-2014 00:00:00 15.49273 C 69.6545 % 9.98 C
1750 02-06-2014 00:00:00 15.88943 C 67.9715 % 9.99 C
Sensor: Nr:Datum:Temp:Feuchte:Taupunkt:
Aussen-T/F 1751 03-06-2014 00:00:00 15.78662 C 74.8627 % 11.34 C
1752 04-06-2014 00:00:00 14.95388 C 86.4155 % 12.71 C
1753 05-06-2014 00:00:00 14.55765 C 67.7687 % 8.68 C
1754 06-06-2014 00:00:00 17.20312 C 67.7778 % 11.2 C
1755 07-06-2014 00:00:00 20.77257 C 72.3750 % 15.62 C
1756 08-06-2014 00:00:00 24.09514 C 70.7431 % 18.45 C
1757 09-06-2014 00:00:00 25.74583 C 69.9583 % 19.85 C
1758 10-06-2014 00:00:00 23.66632 C 70.6389 % 18.01 C
1759 11-06-2014 00:00:00 20.10803 C 81.3175 % 16.81 C
1760 12-06-2014 00:00:00 19.97431 C 66.4583 % 13.54 C
1761 13-06-2014 00:00:00 18.37014 C 68.1597 % 12.4 C
1762 14-06-2014 00:00:00 17.27465 C 65.5104 % 10.76 C
1763 15-06-2014 00:00:00 16.86944 C 67.1875 % 10.75 C
1764 16-06-2014 00:00:00 15.61944 C 74.7396 % 11.15 C
1765 17-06-2014 00:00:00 17.41354 C 66.8819 % 11.2 C
1766 18-06-2014 00:00:00 17.76319 C 71.4931 % 12.54 C
1767 19-06-2014 00:00:00 15.70791 C 75.5252 % 11.4 C
1768 20-06-2014 00:00:00 15.64143 C 71.1667 % 10.44 C
1769 21-06-2014 00:00:00 16.62118 C 65.5903 % 10.15 C
1770 22-06-2014 00:00:00 16.62782 C 66.3415 % 10.33 C
1771 23-06-2014 00:00:00 17.14792 C 65.1910 % 10.56 C
1772 24-06-2014 00:00:00 16.64978 C 71.6277 % 11.5 C
1773 25-06-2014 00:00:00 17.29096 C 56.5426 % 8.58 C
1774 26-06-2014 00:00:00 16.18958 C 64.0764 % 9.4 C
1775 27-06-2014 00:00:00 17.54167 C 67.2604 % 11.41 C
Sensor: Nr:Datum:Temp:Feuchte:Taupunkt:
Aussen-T/F 1776 28-06-2014 00:00:00 16.28043 C 87.3950 % 14.18 C
1777 29-06-2014 00:00:00 14.67192 C 93.3251 % 13.61 C
1778 30-06-2014 00:00:00 16.05247 C 75.2167 % 11.67 C
1779 01-07-2014 00:00:00 15.65035 C 70.2917 % 10.26 C
1780 02-07-2014 00:00:00 16.86146 C 65.5313 % 10.37 C
1781 03-07-2014 00:00:00 19.78889 C 59.6493 % 11.72 C
1782 04-07-2014 00:00:00 20.36076 C 67.5382 % 14.16 C
1783 05-07-2014 00:00:00 20.4 C 77.3439 % 16.3 C
1784 06-07-2014 00:00:00 23.48509 C 69.7818 % 17.65 C
1785 07-07-2014 00:00:00 19.86367 C 64.8202 % 13.05 C
1786 08-07-2014 00:00:00 15.57633 C 89.8898 % 13.92 C
1787 09-07-2014 00:00:00 12.97083 C 95.1667 % 12.22 C
1788 10-07-2014 00:00:00 17.68292 C 90.2000 % 16.06 C
1789 11-07-2014 00:00:00 18.42369 C 88.6466 % 16.51 C
1790 12-07-2014 00:00:00 18.68363 C 88.1018 % 16.67 C
1791 13-07-2014 00:00:00 19.06941 C 85.5922 % 16.6 C
1792 14-07-2014 00:00:00 19.60206 C 79.5021 % 15.96 C
1793 15-07-2014 00:00:00 21.3216 C 70.6901 % 15.78 C
1794 16-07-2014 00:00:00 21.88732 C 74.8829 % 17.23 C
1795 17-07-2014 00:00:00 23.77903 C 70.2742 % 18.04 C
1796 18-07-2014 00:00:00 24.87935 C 65.5097 % 17.97 C
1797 19-07-2014 00:00:00 27.76989 C 58.4086 % 18.86 C
1798 20-07-2014 00:00:00 22.68715 C 80.6840 % 19.19 C
1799 21-07-2014 00:00:00 20.29965 C 91.0660 % 18.79 C
1800 22-07-2014 00:00:00 23.6856 C 82.0494 % 20.44 C
Sensor: Nr:Datum:Temp:Feuchte:Taupunkt:
Aussen-T/F 1801 23-07-2014 00:00:00 23.11788 C 73.8869 % 18.2 C
1802 24-07-2014 00:00:00 20.63922 C 73.5020 % 15.74 C
1803 25-07-2014 00:00:00 21.8193 C 72.9825 % 16.76 C
1804 26-07-2014 00:00:00 21.92 C 74.3097 % 17.14 C
1805 27-07-2014 00:00:00 19.66694 C 83.9339 % 16.88 C
1806 28-07-2014 00:00:00 22.3284 C 78.8580 % 18.48 C
1807 29-07-2014 00:00:00 19.88194 C 95.8125 % 19.19 C
1808 30-07-2014 00:00:00 19.93194 C 85.4097 % 17.41 C
1809 31-07-2014 00:00:00 20.20645 C 77.0896 % 16.06 C
1810 01-08-2014 00:00:00 20.08438 C 81.7153 % 16.86 C
1811 02-08-2014 00:00:00 20.10868 C 84.8264 % 17.48 C
1812 03-08-2014 00:00:00 21.3566 C 81.2743 % 18.02 C
1813 04-08-2014 00:00:00 19.00347 C 86.5799 % 16.71 C
1814 05-08-2014 00:00:00 18.77049 C 82.0208 % 15.64 C
1815 06-08-2014 00:00:00 17.59618 C 84.4201 % 14.94 C
1816 07-08-2014 00:00:00 18.9934 C 85.7986 % 16.56 C
1817 08-08-2014 00:00:00 18.87604 C 89.5625 % 17.12 C
1818 09-08-2014 00:00:00 20.16771 C 80.6076 % 16.73 C
1819 10-08-2014 00:00:00 19.0125 C 90.0208 % 17.34 C
1820 11-08-2014 00:00:00 17.0066 C 81.0000 % 13.72 C
1821 12-08-2014 00:00:00 17.62431 C 72.1944 % 12.56 C
1822 13-08-2014 00:00:00 15.97674 C 89.6528 % 14.28 C
1823 14-08-2014 00:00:00 16.15426 C 84.3298 % 13.51 C
1824 15-08-2014 00:00:00 14.48638 C 92.1720 % 13.23 C

Maximal/Minimal-Werte vom 16.08.2009 - 15.08.2014

Sensor Min Max Avg
Temp
(Aussen-T/F)
-16.4 °C
20-12-2009  01:30:01
36.9 °C
19-08-2012  16:30:00
10.65 °C
Feuchte
(Aussen-T/F)
20 %
16-08-2009  14:42:27
100 %
07-10-2012  03:05:00
77.85 %
Taupunkt
(Aussen-T/F)
-19.18 C
19-12-2009  00:00:00
21.36 C
19-06-2013  00:00:00
6.12 C

Die Daten stammen von einer Davis Vantage Pro 2 Wetter-Station und werden unter Linux mit der Software wview2wettercgi und aufbereitet. Alle Angaben erfolgen ohne Gewähr für ihre Vollständigkeit oder Richtigkeit.
Kontakt: Rainer Krienke krienke@uni-koblenz.de . Meine Webseiten an der Uni Koblenz oder privat.
Version: $Revision: 0.78 $